<?xml version="1.0" encoding="UTF-8" standalone="no" ?>
<gpx xmlns="http://www.topografix.com/GPX/1/1" xmlns:xsi="http://www.w3.org/2001/XMLSchema-instance" xsi:schemaLocation="http://www.topografix.com/GPX/1/1 http://www.topografix.com/GPX/1/1/gpx.xsd" version="1.1" creator="VisuGPX - https://www.visugpx.com">
  <metadata>
    <name>VTT Randonnée Lagor (64) &amp;quot;la Lagorienne&amp;quot;</name>
    <desc><![CDATA[Randonnée la Lagorienne - grosse chaleur]]></desc>
  </metadata>
  <trk>
    <name><![CDATA[ACTIVE LOG 001]]></name>
    <trkseg>
      <trkpt lat="43.39626" lon="-0.63522">
        <ele>85.69458</ele>
        <time>2011-06-26T06:56:56Z</time>
      </trkpt>
      <trkpt lat="43.39626" lon="-0.63522">
        <ele>85.69458</ele>
        <time>2011-06-26T06:56:58Z</time>
      </trkpt>
      <trkpt lat="43.39627" lon="-0.63521">
        <ele>85.69458</ele>
        <time>2011-06-26T06:56:59Z</time>
      </trkpt>
      <trkpt lat="43.39626" lon="-0.63522">
        <ele>89.059326</ele>
        <time>2011-06-26T06:57:14Z</time>
      </trkpt>
      <trkpt lat="43.3962" lon="-0.63526">
        <ele>91.943237</ele>
        <time>2011-06-26T06:57:23Z</time>
      </trkpt>
      <trkpt lat="43.3962" lon="-0.63526">
        <ele>95.307739</ele>
        <time>2011-06-26T06:57:30Z</time>
      </trkpt>
      <trkpt lat="43.39619" lon="-0.63526">
        <ele>98.672485</ele>
        <time>2011-06-26T06:57:40Z</time>
      </trkpt>
      <trkpt lat="43.39619" lon="-0.63525">
        <ele>101.556396</ele>
        <time>2011-06-26T06:57:52Z</time>
      </trkpt>
      <trkpt lat="43.39619" lon="-0.63525">
        <ele>102.5177</ele>
        <time>2011-06-26T06:58:01Z</time>
      </trkpt>
      <trkpt lat="43.39615" lon="-0.63512">
        <ele>102.998291</ele>
        <time>2011-06-26T06:58:08Z</time>
      </trkpt>
      <trkpt lat="43.39613" lon="-0.63449">
        <ele>103.959717</ele>
        <time>2011-06-26T06:58:24Z</time>
      </trkpt>
      <trkpt lat="43.39604" lon="-0.63404">
        <ele>105.401733</ele>
        <time>2011-06-26T06:58:39Z</time>
      </trkpt>
      <trkpt lat="43.396" lon="-0.63401">
        <ele>104.44043</ele>
        <time>2011-06-26T06:58:41Z</time>
      </trkpt>
      <trkpt lat="43.39601" lon="-0.63384">
        <ele>105.401733</ele>
        <time>2011-06-26T06:58:45Z</time>
      </trkpt>
      <trkpt lat="43.39622" lon="-0.63265">
        <ele>104.44043</ele>
        <time>2011-06-26T06:59:02Z</time>
      </trkpt>
      <trkpt lat="43.3963" lon="-0.63132">
        <ele>101.556396</ele>
        <time>2011-06-26T06:59:17Z</time>
      </trkpt>
      <trkpt lat="43.39657" lon="-0.62957">
        <ele>100.595093</ele>
        <time>2011-06-26T06:59:38Z</time>
      </trkpt>
      <trkpt lat="43.39704" lon="-0.62867">
        <ele>102.037109</ele>
        <time>2011-06-26T06:59:52Z</time>
      </trkpt>
      <trkpt lat="43.39738" lon="-0.62829">
        <ele>100.595093</ele>
        <time>2011-06-26T07:00:00Z</time>
      </trkpt>
      <trkpt lat="43.39742" lon="-0.62793">
        <ele>101.075684</ele>
        <time>2011-06-26T07:00:06Z</time>
      </trkpt>
      <trkpt lat="43.39704" lon="-0.62705">
        <ele>100.595093</ele>
        <time>2011-06-26T07:00:19Z</time>
      </trkpt>
      <trkpt lat="43.39683" lon="-0.62696">
        <ele>99.633789</ele>
        <time>2011-06-26T07:00:25Z</time>
      </trkpt>
      <trkpt lat="43.39671" lon="-0.62705">
        <ele>99.153076</ele>
        <time>2011-06-26T07:00:28Z</time>
      </trkpt>
      <trkpt lat="43.39658" lon="-0.62693">
        <ele>100.595093</ele>
        <time>2011-06-26T07:00:33Z</time>
      </trkpt>
      <trkpt lat="43.39634" lon="-0.62647">
        <ele>100.595093</ele>
        <time>2011-06-26T07:00:46Z</time>
      </trkpt>
      <trkpt lat="43.39612" lon="-0.62604">
        <ele>100.595093</ele>
        <time>2011-06-26T07:00:57Z</time>
      </trkpt>
      <trkpt lat="43.39604" lon="-0.62598">
        <ele>101.556396</ele>
        <time>2011-06-26T07:01:00Z</time>
      </trkpt>
      <trkpt lat="43.3959" lon="-0.62607">
        <ele>100.595093</ele>
        <time>2011-06-26T07:01:05Z</time>
      </trkpt>
      <trkpt lat="43.39537" lon="-0.62692">
        <ele>99.153076</ele>
        <time>2011-06-26T07:01:25Z</time>
      </trkpt>
      <trkpt lat="43.39497" lon="-0.62716">
        <ele>99.633789</ele>
        <time>2011-06-26T07:01:37Z</time>
      </trkpt>
      <trkpt lat="43.39461" lon="-0.62668">
        <ele>100.595093</ele>
        <time>2011-06-26T07:01:51Z</time>
      </trkpt>
      <trkpt lat="43.39446" lon="-0.62603">
        <ele>101.556396</ele>
        <time>2011-06-26T07:02:04Z</time>
      </trkpt>
      <trkpt lat="43.39435" lon="-0.62576">
        <ele>100.595093</ele>
        <time>2011-06-26T07:02:11Z</time>
      </trkpt>
      <trkpt lat="43.39424" lon="-0.62577">
        <ele>102.037109</ele>
        <time>2011-06-26T07:02:15Z</time>
      </trkpt>
      <trkpt lat="43.39397" lon="-0.62617">
        <ele>100.595093</ele>
        <time>2011-06-26T07:02:30Z</time>
      </trkpt>
      <trkpt lat="43.39401" lon="-0.62686">
        <ele>100.114502</ele>
        <time>2011-06-26T07:02:43Z</time>
      </trkpt>
      <trkpt lat="43.39428" lon="-0.62704">
        <ele>101.556396</ele>
        <time>2011-06-26T07:02:54Z</time>
      </trkpt>
      <trkpt lat="43.39436" lon="-0.62761">
        <ele>101.075684</ele>
        <time>2011-06-26T07:03:08Z</time>
      </trkpt>
      <trkpt lat="43.39395" lon="-0.62783">
        <ele>101.075684</ele>
        <time>2011-06-26T07:03:20Z</time>
      </trkpt>
      <trkpt lat="43.39391" lon="-0.62785">
        <ele>101.075684</ele>
        <time>2011-06-26T07:03:21Z</time>
      </trkpt>
      <trkpt lat="43.3937" lon="-0.62797">
        <ele>101.075684</ele>
        <time>2011-06-26T07:03:26Z</time>
      </trkpt>
      <trkpt lat="43.39339" lon="-0.62846">
        <ele>101.075684</ele>
        <time>2011-06-26T07:03:37Z</time>
      </trkpt>
      <trkpt lat="43.39342" lon="-0.6289">
        <ele>103.959717</ele>
        <time>2011-06-26T07:03:48Z</time>
      </trkpt>
      <trkpt lat="43.39384" lon="-0.62951">
        <ele>103.479004</ele>
        <time>2011-06-26T07:04:05Z</time>
      </trkpt>
      <trkpt lat="43.39415" lon="-0.62995">
        <ele>103.959717</ele>
        <time>2011-06-26T07:04:18Z</time>
      </trkpt>
      <trkpt lat="43.39403" lon="-0.6301">
        <ele>103.959717</ele>
        <time>2011-06-26T07:04:26Z</time>
      </trkpt>
      <trkpt lat="43.39399" lon="-0.63009">
        <ele>103.959717</ele>
        <time>2011-06-26T07:04:27Z</time>
      </trkpt>
      <trkpt lat="43.39356" lon="-0.63015">
        <ele>103.959717</ele>
        <time>2011-06-26T07:04:40Z</time>
      </trkpt>
      <trkpt lat="43.39347" lon="-0.63022">
        <ele>103.959717</ele>
        <time>2011-06-26T07:04:43Z</time>
      </trkpt>
      <trkpt lat="43.39306" lon="-0.63">
        <ele>104.44043</ele>
        <time>2011-06-26T07:04:54Z</time>
      </trkpt>
      <trkpt lat="43.39227" lon="-0.62947">
        <ele>104.44043</ele>
        <time>2011-06-26T07:05:13Z</time>
      </trkpt>
      <trkpt lat="43.39157" lon="-0.62858">
        <ele>105.882446</ele>
        <time>2011-06-26T07:05:33Z</time>
      </trkpt>
      <trkpt lat="43.39144" lon="-0.62839">
        <ele>106.363037</ele>
        <time>2011-06-26T07:05:37Z</time>
      </trkpt>
      <trkpt lat="43.39128" lon="-0.62828">
        <ele>105.882446</ele>
        <time>2011-06-26T07:05:41Z</time>
      </trkpt>
      <trkpt lat="43.39119" lon="-0.62826">
        <ele>105.401733</ele>
        <time>2011-06-26T07:05:43Z</time>
      </trkpt>
      <trkpt lat="43.39102" lon="-0.62815">
        <ele>105.401733</ele>
        <time>2011-06-26T07:05:47Z</time>
      </trkpt>
      <trkpt lat="43.3909" lon="-0.62804">
        <ele>105.401733</ele>
        <time>2011-06-26T07:05:50Z</time>
      </trkpt>
      <trkpt lat="43.39062" lon="-0.62772">
        <ele>105.882446</ele>
        <time>2011-06-26T07:05:58Z</time>
      </trkpt>
      <trkpt lat="43.39025" lon="-0.62706">
        <ele>105.882446</ele>
        <time>2011-06-26T07:06:11Z</time>
      </trkpt>
      <trkpt lat="43.39019" lon="-0.62696">
        <ele>106.363037</ele>
        <time>2011-06-26T07:06:13Z</time>
      </trkpt>
      <trkpt lat="43.39008" lon="-0.62683">
        <ele>105.401733</ele>
        <time>2011-06-26T07:06:17Z</time>
      </trkpt>
      <trkpt lat="43.3901" lon="-0.6267">
        <ele>105.401733</ele>
        <time>2011-06-26T07:06:21Z</time>
      </trkpt>
      <trkpt lat="43.39054" lon="-0.62624">
        <ele>104.921021</ele>
        <time>2011-06-26T07:06:37Z</time>
      </trkpt>
      <trkpt lat="43.39061" lon="-0.62606">
        <ele>102.037109</ele>
        <time>2011-06-26T07:06:41Z</time>
      </trkpt>
      <trkpt lat="43.39057" lon="-0.62597">
        <ele>102.5177</ele>
        <time>2011-06-26T07:06:43Z</time>
      </trkpt>
      <trkpt lat="43.39014" lon="-0.6252">
        <ele>103.479004</ele>
        <time>2011-06-26T07:06:59Z</time>
      </trkpt>
      <trkpt lat="43.39011" lon="-0.62515">
        <ele>103.479004</ele>
        <time>2011-06-26T07:07:00Z</time>
      </trkpt>
      <trkpt lat="43.39007" lon="-0.62495">
        <ele>103.959717</ele>
        <time>2011-06-26T07:07:04Z</time>
      </trkpt>
      <trkpt lat="43.39013" lon="-0.62476">
        <ele>102.5177</ele>
        <time>2011-06-26T07:07:08Z</time>
      </trkpt>
      <trkpt lat="43.39011" lon="-0.62456">
        <ele>102.037109</ele>
        <time>2011-06-26T07:07:12Z</time>
      </trkpt>
      <trkpt lat="43.38981" lon="-0.62386">
        <ele>102.998291</ele>
        <time>2011-06-26T07:07:25Z</time>
      </trkpt>
      <trkpt lat="43.38959" lon="-0.62322">
        <ele>103.959717</ele>
        <time>2011-06-26T07:07:36Z</time>
      </trkpt>
      <trkpt lat="43.38959" lon="-0.62257">
        <ele>103.959717</ele>
        <time>2011-06-26T07:07:46Z</time>
      </trkpt>
      <trkpt lat="43.38936" lon="-0.62165">
        <ele>103.479004</ele>
        <time>2011-06-26T07:08:00Z</time>
      </trkpt>
      <trkpt lat="43.38914" lon="-0.6206">
        <ele>104.44043</ele>
        <time>2011-06-26T07:08:16Z</time>
      </trkpt>
      <trkpt lat="43.3892" lon="-0.61962">
        <ele>104.44043</ele>
        <time>2011-06-26T07:08:30Z</time>
      </trkpt>
      <trkpt lat="43.38897" lon="-0.61869">
        <ele>104.44043</ele>
        <time>2011-06-26T07:08:44Z</time>
      </trkpt>
      <trkpt lat="43.38854" lon="-0.61752">
        <ele>104.921021</ele>
        <time>2011-06-26T07:09:04Z</time>
      </trkpt>
      <trkpt lat="43.38852" lon="-0.61714">
        <ele>104.44043</ele>
        <time>2011-06-26T07:09:11Z</time>
      </trkpt>
      <trkpt lat="43.38833" lon="-0.61722">
        <ele>104.921021</ele>
        <time>2011-06-26T07:09:17Z</time>
      </trkpt>
      <trkpt lat="43.38774" lon="-0.61831">
        <ele>104.44043</ele>
        <time>2011-06-26T07:09:37Z</time>
      </trkpt>
      <trkpt lat="43.38732" lon="-0.61905">
        <ele>105.882446</ele>
        <time>2011-06-26T07:09:51Z</time>
      </trkpt>
      <trkpt lat="43.38661" lon="-0.61959">
        <ele>106.363037</ele>
        <time>2011-06-26T07:10:08Z</time>
      </trkpt>
      <trkpt lat="43.38608" lon="-0.62008">
        <ele>106.363037</ele>
        <time>2011-06-26T07:10:22Z</time>
      </trkpt>
      <trkpt lat="43.3859" lon="-0.62014">
        <ele>106.363037</ele>
        <time>2011-06-26T07:10:26Z</time>
      </trkpt>
      <trkpt lat="43.38553" lon="-0.62003">
        <ele>106.843628</ele>
        <time>2011-06-26T07:10:34Z</time>
      </trkpt>
      <trkpt lat="43.38531" lon="-0.62014">
        <ele>106.363037</ele>
        <time>2011-06-26T07:10:39Z</time>
      </trkpt>
      <trkpt lat="43.38481" lon="-0.62077">
        <ele>106.363037</ele>
        <time>2011-06-26T07:10:53Z</time>
      </trkpt>
      <trkpt lat="43.38418" lon="-0.62154">
        <ele>106.843628</ele>
        <time>2011-06-26T07:11:11Z</time>
      </trkpt>
      <trkpt lat="43.38403" lon="-0.62166">
        <ele>106.363037</ele>
        <time>2011-06-26T07:11:15Z</time>
      </trkpt>
      <trkpt lat="43.38338" lon="-0.62232">
        <ele>106.363037</ele>
        <time>2011-06-26T07:11:32Z</time>
      </trkpt>
      <trkpt lat="43.38303" lon="-0.6227">
        <ele>105.882446</ele>
        <time>2011-06-26T07:11:42Z</time>
      </trkpt>
      <trkpt lat="43.38302" lon="-0.62292">
        <ele>105.882446</ele>
        <time>2011-06-26T07:11:47Z</time>
      </trkpt>
      <trkpt lat="43.3836" lon="-0.62362">
        <ele>106.363037</ele>
        <time>2011-06-26T07:12:05Z</time>
      </trkpt>
      <trkpt lat="43.38362" lon="-0.62365">
        <ele>106.843628</ele>
        <time>2011-06-26T07:12:06Z</time>
      </trkpt>
      <trkpt lat="43.38373" lon="-0.62359">
        <ele>106.363037</ele>
        <time>2011-06-26T07:12:10Z</time>
      </trkpt>
      <trkpt lat="43.3839" lon="-0.6234">
        <ele>105.882446</ele>
        <time>2011-06-26T07:12:15Z</time>
      </trkpt>
      <trkpt lat="43.38407" lon="-0.62356">
        <ele>106.363037</ele>
        <time>2011-06-26T07:12:21Z</time>
      </trkpt>
      <trkpt lat="43.3841" lon="-0.62374">
        <ele>106.363037</ele>
        <time>2011-06-26T07:12:24Z</time>
      </trkpt>
      <trkpt lat="43.38435" lon="-0.62435">
        <ele>105.882446</ele>
        <time>2011-06-26T07:12:36Z</time>
      </trkpt>
      <trkpt lat="43.38445" lon="-0.62436">
        <ele>105.882446</ele>
        <time>2011-06-26T07:12:40Z</time>
      </trkpt>
      <trkpt lat="43.38499" lon="-0.62367">
        <ele>106.363037</ele>
        <time>2011-06-26T07:12:57Z</time>
      </trkpt>
      <trkpt lat="43.38501" lon="-0.62362">
        <ele>105.882446</ele>
        <time>2011-06-26T07:12:58Z</time>
      </trkpt>
      <trkpt lat="43.3851" lon="-0.62331">
        <ele>105.882446</ele>
        <time>2011-06-26T07:13:03Z</time>
      </trkpt>
      <trkpt lat="43.38552" lon="-0.62236">
        <ele>105.401733</ele>
        <time>2011-06-26T07:13:20Z</time>
      </trkpt>
      <trkpt lat="43.38624" lon="-0.62093">
        <ele>105.882446</ele>
        <time>2011-06-26T07:13:46Z</time>
      </trkpt>
      <trkpt lat="43.38646" lon="-0.62044">
        <ele>105.882446</ele>
        <time>2011-06-26T07:13:55Z</time>
      </trkpt>
      <trkpt lat="43.38659" lon="-0.62018">
        <ele>106.843628</ele>
        <time>2011-06-26T07:14:00Z</time>
      </trkpt>
      <trkpt lat="43.38672" lon="-0.6202">
        <ele>106.363037</ele>
        <time>2011-06-26T07:14:04Z</time>
      </trkpt>
      <trkpt lat="43.38678" lon="-0.62036">
        <ele>105.882446</ele>
        <time>2011-06-26T07:14:07Z</time>
      </trkpt>
      <trkpt lat="43.38719" lon="-0.62072">
        <ele>106.363037</ele>
        <time>2011-06-26T07:14:18Z</time>
      </trkpt>
      <trkpt lat="43.38721" lon="-0.62086">
        <ele>105.401733</ele>
        <time>2011-06-26T07:14:20Z</time>
      </trkpt>
      <trkpt lat="43.38717" lon="-0.62142">
        <ele>105.401733</ele>
        <time>2011-06-26T07:14:28Z</time>
      </trkpt>
      <trkpt lat="43.38731" lon="-0.62246">
        <ele>103.479004</ele>
        <time>2011-06-26T07:14:41Z</time>
      </trkpt>
      <trkpt lat="43.38769" lon="-0.62404">
        <ele>102.5177</ele>
        <time>2011-06-26T07:15:01Z</time>
      </trkpt>
      <trkpt lat="43.38787" lon="-0.62477">
        <ele>102.998291</ele>
        <time>2011-06-26T07:15:11Z</time>
      </trkpt>
      <trkpt lat="43.38834" lon="-0.62574">
        <ele>102.5177</ele>
        <time>2011-06-26T07:15:26Z</time>
      </trkpt>
      <trkpt lat="43.3885" lon="-0.626">
        <ele>102.998291</ele>
        <time>2011-06-26T07:15:31Z</time>
      </trkpt>
      <trkpt lat="43.38845" lon="-0.62639">
        <ele>102.998291</ele>
        <time>2011-06-26T07:15:38Z</time>
      </trkpt>
      <trkpt lat="43.38843" lon="-0.62705">
        <ele>103.959717</ele>
        <time>2011-06-26T07:15:48Z</time>
      </trkpt>
      <trkpt lat="43.3885" lon="-0.62717">
        <ele>103.959717</ele>
        <time>2011-06-26T07:15:50Z</time>
      </trkpt>
      <trkpt lat="43.38856" lon="-0.62727">
        <ele>103.479004</ele>
        <time>2011-06-26T07:15:52Z</time>
      </trkpt>
      <trkpt lat="43.38862" lon="-0.62764">
        <ele>102.998291</ele>
        <time>2011-06-26T07:15:58Z</time>
      </trkpt>
      <trkpt lat="43.38848" lon="-0.62811">
        <ele>103.959717</ele>
        <time>2011-06-26T07:16:04Z</time>
      </trkpt>
      <trkpt lat="43.38852" lon="-0.62842">
        <ele>103.479004</ele>
        <time>2011-06-26T07:16:08Z</time>
      </trkpt>
      <trkpt lat="43.38876" lon="-0.62884">
        <ele>103.479004</ele>
        <time>2011-06-26T07:16:14Z</time>
      </trkpt>
      <trkpt lat="43.38873" lon="-0.62927">
        <ele>103.479004</ele>
        <time>2011-06-26T07:16:20Z</time>
      </trkpt>
      <trkpt lat="43.38861" lon="-0.62946">
        <ele>103.479004</ele>
        <time>2011-06-26T07:16:23Z</time>
      </trkpt>
      <trkpt lat="43.38853" lon="-0.62978">
        <ele>103.479004</ele>
        <time>2011-06-26T07:16:27Z</time>
      </trkpt>
      <trkpt lat="43.38855" lon="-0.63062">
        <ele>102.5177</ele>
        <time>2011-06-26T07:16:38Z</time>
      </trkpt>
      <trkpt lat="43.38836" lon="-0.63071">
        <ele>102.998291</ele>
        <time>2011-06-26T07:16:44Z</time>
      </trkpt>
      <trkpt lat="43.38816" lon="-0.63064">
        <ele>102.998291</ele>
        <time>2011-06-26T07:16:48Z</time>
      </trkpt>
      <trkpt lat="43.38797" lon="-0.63051">
        <ele>102.5177</ele>
        <time>2011-06-26T07:16:52Z</time>
      </trkpt>
      <trkpt lat="43.38781" lon="-0.63046">
        <ele>102.998291</ele>
        <time>2011-06-26T07:16:55Z</time>
      </trkpt>
      <trkpt lat="43.38756" lon="-0.63025">
        <ele>102.5177</ele>
        <time>2011-06-26T07:17:02Z</time>
      </trkpt>
      <trkpt lat="43.38737" lon="-0.63012">
        <ele>102.5177</ele>
        <time>2011-06-26T07:17:07Z</time>
      </trkpt>
      <trkpt lat="43.38721" lon="-0.63001">
        <ele>102.5177</ele>
        <time>2011-06-26T07:17:12Z</time>
      </trkpt>
      <trkpt lat="43.38723" lon="-0.62963">
        <ele>102.998291</ele>
        <time>2011-06-26T07:17:19Z</time>
      </trkpt>
      <trkpt lat="43.38706" lon="-0.62951">
        <ele>102.998291</ele>
        <time>2011-06-26T07:17:24Z</time>
      </trkpt>
      <trkpt lat="43.38669" lon="-0.62921">
        <ele>102.5177</ele>
        <time>2011-06-26T07:17:34Z</time>
      </trkpt>
      <trkpt lat="43.38653" lon="-0.629">
        <ele>102.998291</ele>
        <time>2011-06-26T07:17:41Z</time>
      </trkpt>
      <trkpt lat="43.38623" lon="-0.62874">
        <ele>103.479004</ele>
        <time>2011-06-26T07:17:50Z</time>
      </trkpt>
      <trkpt lat="43.38612" lon="-0.62864">
        <ele>103.479004</ele>
        <time>2011-06-26T07:17:56Z</time>
      </trkpt>
      <trkpt lat="43.38586" lon="-0.6295">
        <ele>103.479004</ele>
        <time>2011-06-26T07:18:10Z</time>
      </trkpt>
      <trkpt lat="43.3855" lon="-0.63065">
        <ele>103.959717</ele>
        <time>2011-06-26T07:18:27Z</time>
      </trkpt>
      <trkpt lat="43.3853" lon="-0.63127">
        <ele>104.921021</ele>
        <time>2011-06-26T07:18:36Z</time>
      </trkpt>
      <trkpt lat="43.38523" lon="-0.63147">
        <ele>103.959717</ele>
        <time>2011-06-26T07:18:39Z</time>
      </trkpt>
      <trkpt lat="43.38519" lon="-0.6316">
        <ele>103.959717</ele>
        <time>2011-06-26T07:18:41Z</time>
      </trkpt>
      <trkpt lat="43.38513" lon="-0.63181">
        <ele>103.959717</ele>
        <time>2011-06-26T07:18:44Z</time>
      </trkpt>
      <trkpt lat="43.38503" lon="-0.63208">
        <ele>103.479004</ele>
        <time>2011-06-26T07:18:48Z</time>
      </trkpt>
      <trkpt lat="43.38453" lon="-0.63292">
        <ele>103.479004</ele>
        <time>2011-06-26T07:19:02Z</time>
      </trkpt>
      <trkpt lat="43.38378" lon="-0.63417">
        <ele>103.479004</ele>
        <time>2011-06-26T07:19:23Z</time>
      </trkpt>
      <trkpt lat="43.3831" lon="-0.63493">
        <ele>103.479004</ele>
        <time>2011-06-26T07:19:39Z</time>
      </trkpt>
      <trkpt lat="43.38299" lon="-0.63514">
        <ele>103.959717</ele>
        <time>2011-06-26T07:19:43Z</time>
      </trkpt>
      <trkpt lat="43.38293" lon="-0.63544">
        <ele>102.5177</ele>
        <time>2011-06-26T07:19:48Z</time>
      </trkpt>
      <trkpt lat="43.38286" lon="-0.63575">
        <ele>101.556396</ele>
        <time>2011-06-26T07:19:55Z</time>
      </trkpt>
      <trkpt lat="43.38271" lon="-0.63591">
        <ele>100.595093</ele>
        <time>2011-06-26T07:19:59Z</time>
      </trkpt>
      <trkpt lat="43.38222" lon="-0.63617">
        <ele>104.44043</ele>
        <time>2011-06-26T07:20:14Z</time>
      </trkpt>
      <trkpt lat="43.38173" lon="-0.63634">
        <ele>107.805054</ele>
        <time>2011-06-26T07:20:30Z</time>
      </trkpt>
      <trkpt lat="43.38166" lon="-0.63647">
        <ele>108.285645</ele>
        <time>2011-06-26T07:20:35Z</time>
      </trkpt>
      <trkpt lat="43.3817" lon="-0.63658">
        <ele>109.246948</ele>
        <time>2011-06-26T07:20:39Z</time>
      </trkpt>
      <trkpt lat="43.38198" lon="-0.63686">
        <ele>112.611572</ele>
        <time>2011-06-26T07:20:51Z</time>
      </trkpt>
      <trkpt lat="43.382" lon="-0.63688">
        <ele>112.611572</ele>
        <time>2011-06-26T07:20:52Z</time>
      </trkpt>
      <trkpt lat="43.38219" lon="-0.63716">
        <ele>115.976196</ele>
        <time>2011-06-26T07:21:02Z</time>
      </trkpt>
      <trkpt lat="43.38244" lon="-0.63789">
        <ele>118.860107</ele>
        <time>2011-06-26T07:21:21Z</time>
      </trkpt>
      <trkpt lat="43.38245" lon="-0.63853">
        <ele>119.34082</ele>
        <time>2011-06-26T07:21:36Z</time>
      </trkpt>
      <trkpt lat="43.38265" lon="-0.63897">
        <ele>120.782837</ele>
        <time>2011-06-26T07:21:47Z</time>
      </trkpt>
      <trkpt lat="43.38293" lon="-0.63949">
        <ele>122.705444</ele>
        <time>2011-06-26T07:22:00Z</time>
      </trkpt>
      <trkpt lat="43.38321" lon="-0.64007">
        <ele>126.069946</ele>
        <time>2011-06-26T07:22:14Z</time>
      </trkpt>
      <trkpt lat="43.38323" lon="-0.64011">
        <ele>126.550659</ele>
        <time>2011-06-26T07:22:15Z</time>
      </trkpt>
      <trkpt lat="43.3836" lon="-0.64087">
        <ele>126.550659</ele>
        <time>2011-06-26T07:22:30Z</time>
      </trkpt>
      <trkpt lat="43.38362" lon="-0.64094">
        <ele>127.031372</ele>
        <time>2011-06-26T07:22:31Z</time>
      </trkpt>
      <trkpt lat="43.38374" lon="-0.6419">
        <ele>127.992554</ele>
        <time>2011-06-26T07:22:46Z</time>
      </trkpt>
      <trkpt lat="43.38372" lon="-0.64243">
        <ele>127.992554</ele>
        <time>2011-06-26T07:22:55Z</time>
      </trkpt>
      <trkpt lat="43.38377" lon="-0.64264">
        <ele>128.473389</ele>
        <time>2011-06-26T07:22:59Z</time>
      </trkpt>
      <trkpt lat="43.38402" lon="-0.64298">
        <ele>131.837891</ele>
        <time>2011-06-26T07:23:09Z</time>
      </trkpt>
      <trkpt lat="43.38425" lon="-0.64316">
        <ele>134.721924</ele>
        <time>2011-06-26T07:23:18Z</time>
      </trkpt>
      <trkpt lat="43.38447" lon="-0.64333">
        <ele>138.567261</ele>
        <time>2011-06-26T07:23:28Z</time>
      </trkpt>
      <trkpt lat="43.38462" lon="-0.64345">
        <ele>141.45105</ele>
        <time>2011-06-26T07:23:35Z</time>
      </trkpt>
      <trkpt lat="43.38494" lon="-0.64385">
        <ele>142.412476</ele>
        <time>2011-06-26T07:23:50Z</time>
      </trkpt>
      <trkpt lat="43.38521" lon="-0.64456">
        <ele>143.85437</ele>
        <time>2011-06-26T07:24:07Z</time>
      </trkpt>
      <trkpt lat="43.38542" lon="-0.64507">
        <ele>146.738403</ele>
        <time>2011-06-26T07:24:20Z</time>
      </trkpt>
      <trkpt lat="43.38565" lon="-0.64568">
        <ele>148.661011</ele>
        <time>2011-06-26T07:24:37Z</time>
      </trkpt>
      <trkpt lat="43.38577" lon="-0.64609">
        <ele>152.025757</ele>
        <time>2011-06-26T07:24:50Z</time>
      </trkpt>
      <trkpt lat="43.3858" lon="-0.64619">
        <ele>152.986938</ele>
        <time>2011-06-26T07:24:54Z</time>
      </trkpt>
      <trkpt lat="43.38589" lon="-0.6464">
        <ele>156.351562</ele>
        <time>2011-06-26T07:25:03Z</time>
      </trkpt>
      <trkpt lat="43.38592" lon="-0.6465">
        <ele>157.793579</ele>
        <time>2011-06-26T07:25:07Z</time>
      </trkpt>
      <trkpt lat="43.38614" lon="-0.64685">
        <ele>158.27417</ele>
        <time>2011-06-26T07:25:20Z</time>
      </trkpt>
      <trkpt lat="43.38626" lon="-0.64698">
        <ele>158.27417</ele>
        <time>2011-06-26T07:25:24Z</time>
      </trkpt>
      <trkpt lat="43.38603" lon="-0.64722">
        <ele>156.351562</ele>
        <time>2011-06-26T07:25:30Z</time>
      </trkpt>
      <trkpt lat="43.38577" lon="-0.64732">
        <ele>153.948364</ele>
        <time>2011-06-26T07:25:33Z</time>
      </trkpt>
      <trkpt lat="43.38553" lon="-0.64756">
        <ele>150.583618</ele>
        <time>2011-06-26T07:25:36Z</time>
      </trkpt>
      <trkpt lat="43.38528" lon="-0.64785">
        <ele>145.296387</ele>
        <time>2011-06-26T07:25:40Z</time>
      </trkpt>
      <trkpt lat="43.38504" lon="-0.6479">
        <ele>141.931763</ele>
        <time>2011-06-26T07:25:44Z</time>
      </trkpt>
      <trkpt lat="43.38486" lon="-0.64787">
        <ele>138.567261</ele>
        <time>2011-06-26T07:25:48Z</time>
      </trkpt>
      <trkpt lat="43.38476" lon="-0.64786">
        <ele>138.086548</ele>
        <time>2011-06-26T07:25:50Z</time>
      </trkpt>
      <trkpt lat="43.38401" lon="-0.64761">
        <ele>134.721924</ele>
        <time>2011-06-26T07:26:01Z</time>
      </trkpt>
      <trkpt lat="43.38377" lon="-0.64758">
        <ele>134.721924</ele>
        <time>2011-06-26T07:26:04Z</time>
      </trkpt>
      <trkpt lat="43.38328" lon="-0.64733">
        <ele>130.395996</ele>
        <time>2011-06-26T07:26:10Z</time>
      </trkpt>
      <trkpt lat="43.38314" lon="-0.64717">
        <ele>129.434692</ele>
        <time>2011-06-26T07:26:12Z</time>
      </trkpt>
      <trkpt lat="43.3826" lon="-0.64649">
        <ele>126.550659</ele>
        <time>2011-06-26T07:26:20Z</time>
      </trkpt>
      <trkpt lat="43.38241" lon="-0.64606">
        <ele>124.147339</ele>
        <time>2011-06-26T07:26:24Z</time>
      </trkpt>
      <trkpt lat="43.3823" lon="-0.64571">
        <ele>122.224731</ele>
        <time>2011-06-26T07:26:27Z</time>
      </trkpt>
      <trkpt lat="43.38206" lon="-0.64508">
        <ele>120.302124</ele>
        <time>2011-06-26T07:26:33Z</time>
      </trkpt>
      <trkpt lat="43.38159" lon="-0.64476">
        <ele>118.379395</ele>
        <time>2011-06-26T07:26:40Z</time>
      </trkpt>
      <trkpt lat="43.38138" lon="-0.64492">
        <ele>117.418213</ele>
        <time>2011-06-26T07:26:43Z</time>
      </trkpt>
      <trkpt lat="43.38128" lon="-0.64509">
        <ele>117.418213</ele>
        <time>2011-06-26T07:26:45Z</time>
      </trkpt>
      <trkpt lat="43.38112" lon="-0.64509">
        <ele>115.976196</ele>
        <time>2011-06-26T07:26:49Z</time>
      </trkpt>
      <trkpt lat="43.38075" lon="-0.64461">
        <ele>115.976196</ele>
        <time>2011-06-26T07:26:58Z</time>
      </trkpt>
      <trkpt lat="43.38052" lon="-0.64443">
        <ele>115.495605</ele>
        <time>2011-06-26T07:27:03Z</time>
      </trkpt>
      <trkpt lat="43.38033" lon="-0.64436">
        <ele>115.495605</ele>
        <time>2011-06-26T07:27:07Z</time>
      </trkpt>
      <trkpt lat="43.38017" lon="-0.64419">
        <ele>115.014893</ele>
        <time>2011-06-26T07:27:11Z</time>
      </trkpt>
      <trkpt lat="43.38001" lon="-0.64392">
        <ele>115.014893</ele>
        <time>2011-06-26T07:27:16Z</time>
      </trkpt>
      <trkpt lat="43.37981" lon="-0.64383">
        <ele>115.014893</ele>
        <time>2011-06-26T07:27:21Z</time>
      </trkpt>
      <trkpt lat="43.37972" lon="-0.64384">
        <ele>114.53418</ele>
        <time>2011-06-26T07:27:23Z</time>
      </trkpt>
      <trkpt lat="43.37943" lon="-0.64364">
        <ele>115.014893</ele>
        <time>2011-06-26T07:27:30Z</time>
      </trkpt>
      <trkpt lat="43.379" lon="-0.64305">
        <ele>115.495605</ele>
        <time>2011-06-26T07:27:43Z</time>
      </trkpt>
      <trkpt lat="43.37887" lon="-0.6429">
        <ele>115.014893</ele>
        <time>2011-06-26T07:27:47Z</time>
      </trkpt>
      <trkpt lat="43.37866" lon="-0.64278">
        <ele>115.014893</ele>
        <time>2011-06-26T07:27:52Z</time>
      </trkpt>
      <trkpt lat="43.37855" lon="-0.64268">
        <ele>115.495605</ele>
        <time>2011-06-26T07:27:55Z</time>
      </trkpt>
      <trkpt lat="43.3784" lon="-0.64259">
        <ele>115.495605</ele>
        <time>2011-06-26T07:27:59Z</time>
      </trkpt>
      <trkpt lat="43.37832" lon="-0.64257">
        <ele>115.495605</ele>
        <time>2011-06-26T07:28:01Z</time>
      </trkpt>
      <trkpt lat="43.37817" lon="-0.64239">
        <ele>115.014893</ele>
        <time>2011-06-26T07:28:06Z</time>
      </trkpt>
      <trkpt lat="43.37795" lon="-0.64189">
        <ele>115.014893</ele>
        <time>2011-06-26T07:28:17Z</time>
      </trkpt>
      <trkpt lat="43.37771" lon="-0.64218">
        <ele>115.495605</ele>
        <time>2011-06-26T07:28:27Z</time>
      </trkpt>
      <trkpt lat="43.37772" lon="-0.64233">
        <ele>115.495605</ele>
        <time>2011-06-26T07:28:31Z</time>
      </trkpt>
      <trkpt lat="43.37788" lon="-0.64278">
        <ele>115.495605</ele>
        <time>2011-06-26T07:28:42Z</time>
      </trkpt>
      <trkpt lat="43.37775" lon="-0.64277">
        <ele>115.014893</ele>
        <time>2011-06-26T07:28:48Z</time>
      </trkpt>
      <trkpt lat="43.37751" lon="-0.64256">
        <ele>115.495605</ele>
        <time>2011-06-26T07:28:56Z</time>
      </trkpt>
      <trkpt lat="43.37739" lon="-0.64254">
        <ele>115.495605</ele>
        <time>2011-06-26T07:29:01Z</time>
      </trkpt>
      <trkpt lat="43.37685" lon="-0.64196">
        <ele>115.976196</ele>
        <time>2011-06-26T07:29:18Z</time>
      </trkpt>
      <trkpt lat="43.37616" lon="-0.64121">
        <ele>117.898804</ele>
        <time>2011-06-26T07:29:41Z</time>
      </trkpt>
      <trkpt lat="43.37607" lon="-0.64129">
        <ele>117.898804</ele>
        <time>2011-06-26T07:29:46Z</time>
      </trkpt>
      <trkpt lat="43.37602" lon="-0.64154">
        <ele>118.860107</ele>
        <time>2011-06-26T07:29:52Z</time>
      </trkpt>
      <trkpt lat="43.37591" lon="-0.64154">
        <ele>118.379395</ele>
        <time>2011-06-26T07:29:56Z</time>
      </trkpt>
      <trkpt lat="43.37578" lon="-0.6414">
        <ele>118.860107</ele>
        <time>2011-06-26T07:30:00Z</time>
      </trkpt>
      <trkpt lat="43.3757" lon="-0.64133">
        <ele>118.379395</ele>
        <time>2011-06-26T07:30:02Z</time>
      </trkpt>
      <trkpt lat="43.37548" lon="-0.64128">
        <ele>118.379395</ele>
        <time>2011-06-26T07:30:07Z</time>
      </trkpt>
      <trkpt lat="43.37487" lon="-0.64135">
        <ele>119.821411</ele>
        <time>2011-06-26T07:30:20Z</time>
      </trkpt>
      <trkpt lat="43.37469" lon="-0.64126">
        <ele>120.302124</ele>
        <time>2011-06-26T07:30:24Z</time>
      </trkpt>
      <trkpt lat="43.37396" lon="-0.6407">
        <ele>121.744141</ele>
        <time>2011-06-26T07:30:43Z</time>
      </trkpt>
      <trkpt lat="43.37381" lon="-0.64058">
        <ele>121.744141</ele>
        <time>2011-06-26T07:30:47Z</time>
      </trkpt>
      <trkpt lat="43.37358" lon="-0.6404">
        <ele>121.26355</ele>
        <time>2011-06-26T07:30:52Z</time>
      </trkpt>
      <trkpt lat="43.37283" lon="-0.64035">
        <ele>119.821411</ele>
        <time>2011-06-26T07:31:06Z</time>
      </trkpt>
      <trkpt lat="43.37199" lon="-0.64043">
        <ele>122.224731</ele>
        <time>2011-06-26T07:31:24Z</time>
      </trkpt>
      <trkpt lat="43.37131" lon="-0.64032">
        <ele>124.147339</ele>
        <time>2011-06-26T07:31:40Z</time>
      </trkpt>
      <trkpt lat="43.37061" lon="-0.64016">
        <ele>122.705444</ele>
        <time>2011-06-26T07:31:54Z</time>
      </trkpt>
      <trkpt lat="43.37032" lon="-0.64">
        <ele>121.744141</ele>
        <time>2011-06-26T07:31:59Z</time>
      </trkpt>
      <trkpt lat="43.37012" lon="-0.63991">
        <ele>122.224731</ele>
        <time>2011-06-26T07:32:03Z</time>
      </trkpt>
      <trkpt lat="43.36979" lon="-0.63985">
        <ele>123.186157</ele>
        <time>2011-06-26T07:32:10Z</time>
      </trkpt>
      <trkpt lat="43.36883" lon="-0.63963">
        <ele>124.147339</ele>
        <time>2011-06-26T07:32:31Z</time>
      </trkpt>
      <trkpt lat="43.36789" lon="-0.63946">
        <ele>125.108765</ele>
        <time>2011-06-26T07:32:51Z</time>
      </trkpt>
      <trkpt lat="43.36784" lon="-0.63945">
        <ele>125.108765</ele>
        <time>2011-06-26T07:32:52Z</time>
      </trkpt>
      <trkpt lat="43.36755" lon="-0.63939">
        <ele>124.628052</ele>
        <time>2011-06-26T07:32:58Z</time>
      </trkpt>
      <trkpt lat="43.36692" lon="-0.63912">
        <ele>125.589355</ele>
        <time>2011-06-26T07:33:12Z</time>
      </trkpt>
      <trkpt lat="43.36657" lon="-0.63931">
        <ele>127.031372</ele>
        <time>2011-06-26T07:33:21Z</time>
      </trkpt>
      <trkpt lat="43.36644" lon="-0.63933">
        <ele>127.511963</ele>
        <time>2011-06-26T07:33:24Z</time>
      </trkpt>
      <trkpt lat="43.36561" lon="-0.63947">
        <ele>128.954102</ele>
        <time>2011-06-26T07:33:43Z</time>
      </trkpt>
      <trkpt lat="43.36544" lon="-0.63941">
        <ele>128.954102</ele>
        <time>2011-06-26T07:33:48Z</time>
      </trkpt>
      <trkpt lat="43.36539" lon="-0.63932">
        <ele>128.954102</ele>
        <time>2011-06-26T07:33:50Z</time>
      </trkpt>
      <trkpt lat="43.36508" lon="-0.63836">
        <ele>126.069946</ele>
        <time>2011-06-26T07:34:02Z</time>
      </trkpt>
      <trkpt lat="43.36473" lon="-0.63712">
        <ele>124.628052</ele>
        <time>2011-06-26T07:34:17Z</time>
      </trkpt>
      <trkpt lat="43.36484" lon="-0.63627">
        <ele>127.992554</ele>
        <time>2011-06-26T07:34:29Z</time>
      </trkpt>
      <trkpt lat="43.36489" lon="-0.63617">
        <ele>128.473389</ele>
        <time>2011-06-26T07:34:31Z</time>
      </trkpt>
      <trkpt lat="43.36499" lon="-0.63599">
        <ele>128.473389</ele>
        <time>2011-06-26T07:34:35Z</time>
      </trkpt>
      <trkpt lat="43.36479" lon="-0.63588">
        <ele>128.473389</ele>
        <time>2011-06-26T07:34:42Z</time>
      </trkpt>
      <trkpt lat="43.36427" lon="-0.63607">
        <ele>127.992554</ele>
        <time>2011-06-26T07:34:50Z</time>
      </trkpt>
      <trkpt lat="43.364" lon="-0.63661">
        <ele>125.108765</ele>
        <time>2011-06-26T07:34:57Z</time>
      </trkpt>
      <trkpt lat="43.36402" lon="-0.63679">
        <ele>124.628052</ele>
        <time>2011-06-26T07:34:59Z</time>
      </trkpt>
      <trkpt lat="43.36422" lon="-0.63785">
        <ele>124.628052</ele>
        <time>2011-06-26T07:35:11Z</time>
      </trkpt>
      <trkpt lat="43.36399" lon="-0.63813">
        <ele>123.186157</ele>
        <time>2011-06-26T07:35:17Z</time>
      </trkpt>
      <trkpt lat="43.36395" lon="-0.63824">
        <ele>125.108765</ele>
        <time>2011-06-26T07:35:19Z</time>
      </trkpt>
      <trkpt lat="43.36389" lon="-0.63848">
        <ele>124.147339</ele>
        <time>2011-06-26T07:35:24Z</time>
      </trkpt>
      <trkpt lat="43.36415" lon="-0.63858">
        <ele>123.186157</ele>
        <time>2011-06-26T07:35:35Z</time>
      </trkpt>
      <trkpt lat="43.36427" lon="-0.63899">
        <ele>123.186157</ele>
        <time>2011-06-26T07:35:44Z</time>
      </trkpt>
      <trkpt lat="43.36427" lon="-0.63938">
        <ele>123.666748</ele>
        <time>2011-06-26T07:35:54Z</time>
      </trkpt>
      <trkpt lat="43.36428" lon="-0.63951">
        <ele>125.589355</ele>
        <time>2011-06-26T07:35:57Z</time>
      </trkpt>
      <trkpt lat="43.36433" lon="-0.63992">
        <ele>127.992554</ele>
        <time>2011-06-26T07:36:06Z</time>
      </trkpt>
      <trkpt lat="43.36436" lon="-0.64006">
        <ele>127.992554</ele>
        <time>2011-06-26T07:36:09Z</time>
      </trkpt>
      <trkpt lat="43.36436" lon="-0.64023">
        <ele>128.473389</ele>
        <time>2011-06-26T07:36:12Z</time>
      </trkpt>
      <trkpt lat="43.36434" lon="-0.64043">
        <ele>128.954102</ele>
        <time>2011-06-26T07:36:16Z</time>
      </trkpt>
      <trkpt lat="43.36444" lon="-0.64062">
        <ele>128.473389</ele>
        <time>2011-06-26T07:36:22Z</time>
      </trkpt>
      <trkpt lat="43.36454" lon="-0.64114">
        <ele>130.395996</ele>
        <time>2011-06-26T07:36:34Z</time>
      </trkpt>
      <trkpt lat="43.36457" lon="-0.64157">
        <ele>132.318604</ele>
        <time>2011-06-26T07:36:44Z</time>
      </trkpt>
      <trkpt lat="43.36456" lon="-0.64178">
        <ele>134.241211</ele>
        <time>2011-06-26T07:36:49Z</time>
      </trkpt>
      <trkpt lat="43.36451" lon="-0.64219">
        <ele>135.202515</ele>
        <time>2011-06-26T07:36:59Z</time>
      </trkpt>
      <trkpt lat="43.3645" lon="-0.64255">
        <ele>135.683105</ele>
        <time>2011-06-26T07:37:07Z</time>
      </trkpt>
      <trkpt lat="43.3647" lon="-0.64304">
        <ele>134.721924</ele>
        <time>2011-06-26T07:37:18Z</time>
      </trkpt>
      <trkpt lat="43.3648" lon="-0.64319">
        <ele>134.721924</ele>
        <time>2011-06-26T07:37:21Z</time>
      </trkpt>
      <trkpt lat="43.36489" lon="-0.64364">
        <ele>134.241211</ele>
        <time>2011-06-26T07:37:29Z</time>
      </trkpt>
      <trkpt lat="43.365" lon="-0.64431">
        <ele>134.721924</ele>
        <time>2011-06-26T07:37:41Z</time>
      </trkpt>
      <trkpt lat="43.365" lon="-0.64475">
        <ele>136.16394</ele>
        <time>2011-06-26T07:37:52Z</time>
      </trkpt>
      <trkpt lat="43.36496" lon="-0.6452">
        <ele>137.605835</ele>
        <time>2011-06-26T07:38:03Z</time>
      </trkpt>
      <trkpt lat="43.36488" lon="-0.64564">
        <ele>138.567261</ele>
        <time>2011-06-26T07:38:14Z</time>
      </trkpt>
      <trkpt lat="43.36478" lon="-0.64613">
        <ele>140.970459</ele>
        <time>2011-06-26T07:38:27Z</time>
      </trkpt>
      <trkpt lat="43.36471" lon="-0.64629">
        <ele>141.931763</ele>
        <time>2011-06-26T07:38:32Z</time>
      </trkpt>
      <trkpt lat="43.36449" lon="-0.64629">
        <ele>145.7771</ele>
        <time>2011-06-26T07:38:43Z</time>
      </trkpt>
      <trkpt lat="43.36448" lon="-0.64629">
        <ele>145.7771</ele>
        <time>2011-06-26T07:38:44Z</time>
      </trkpt>
      <trkpt lat="43.36427" lon="-0.64628">
        <ele>149.141602</ele>
        <time>2011-06-26T07:38:56Z</time>
      </trkpt>
      <trkpt lat="43.36426" lon="-0.64627">
        <ele>149.141602</ele>
        <time>2011-06-26T07:38:57Z</time>
      </trkpt>
      <trkpt lat="43.36405" lon="-0.64619">
        <ele>152.506348</ele>
        <time>2011-06-26T07:39:12Z</time>
      </trkpt>
      <trkpt lat="43.36387" lon="-0.64605">
        <ele>155.390259</ele>
        <time>2011-06-26T07:39:27Z</time>
      </trkpt>
      <trkpt lat="43.36369" lon="-0.64622">
        <ele>156.351562</ele>
        <time>2011-06-26T07:39:40Z</time>
      </trkpt>
      <trkpt lat="43.36348" lon="-0.64642">
        <ele>158.754761</ele>
        <time>2011-06-26T07:39:52Z</time>
      </trkpt>
      <trkpt lat="43.36344" lon="-0.64647">
        <ele>159.235474</ele>
        <time>2011-06-26T07:39:55Z</time>
      </trkpt>
      <trkpt lat="43.36349" lon="-0.64663">
        <ele>158.27417</ele>
        <time>2011-06-26T07:40:00Z</time>
      </trkpt>
      <trkpt lat="43.36354" lon="-0.6468">
        <ele>156.832153</ele>
        <time>2011-06-26T07:40:03Z</time>
      </trkpt>
      <trkpt lat="43.3636" lon="-0.64721">
        <ele>154.909546</ele>
        <time>2011-06-26T07:40:11Z</time>
      </trkpt>
      <trkpt lat="43.36353" lon="-0.64732">
        <ele>157.312866</ele>
        <time>2011-06-26T07:40:17Z</time>
      </trkpt>
      <trkpt lat="43.36333" lon="-0.64749">
        <ele>160.67749</ele>
        <time>2011-06-26T07:40:31Z</time>
      </trkpt>
      <trkpt lat="43.36301" lon="-0.64763">
        <ele>163.561523</ele>
        <time>2011-06-26T07:40:50Z</time>
      </trkpt>
      <trkpt lat="43.36259" lon="-0.64777">
        <ele>165.964722</ele>
        <time>2011-06-26T07:41:13Z</time>
      </trkpt>
      <trkpt lat="43.36215" lon="-0.648">
        <ele>165.484131</ele>
        <time>2011-06-26T07:41:27Z</time>
      </trkpt>
      <trkpt lat="43.36175" lon="-0.64817">
        <ele>167.406738</ele>
        <time>2011-06-26T07:41:41Z</time>
      </trkpt>
      <trkpt lat="43.36121" lon="-0.6481">
        <ele>169.810059</ele>
        <time>2011-06-26T07:42:01Z</time>
      </trkpt>
      <trkpt lat="43.36073" lon="-0.64804">
        <ele>172.213257</ele>
        <time>2011-06-26T07:42:19Z</time>
      </trkpt>
      <trkpt lat="43.36035" lon="-0.64801">
        <ele>174.616577</ele>
        <time>2011-06-26T07:42:34Z</time>
      </trkpt>
      <trkpt lat="43.36012" lon="-0.64816">
        <ele>176.539307</ele>
        <time>2011-06-26T07:42:45Z</time>
      </trkpt>
      <trkpt lat="43.35987" lon="-0.64843">
        <ele>178.942627</ele>
        <time>2011-06-26T07:42:57Z</time>
      </trkpt>
      <trkpt lat="43.35974" lon="-0.64899">
        <ele>179.903809</ele>
        <time>2011-06-26T07:43:13Z</time>
      </trkpt>
      <trkpt lat="43.35953" lon="-0.64924">
        <ele>183.749023</ele>
        <time>2011-06-26T07:43:27Z</time>
      </trkpt>
      <trkpt lat="43.35938" lon="-0.64941">
        <ele>186.633179</ele>
        <time>2011-06-26T07:43:37Z</time>
      </trkpt>
      <trkpt lat="43.35898" lon="-0.64953">
        <ele>189.516968</ele>
        <time>2011-06-26T07:43:58Z</time>
      </trkpt>
      <trkpt lat="43.3587" lon="-0.64959">
        <ele>189.997681</ele>
        <time>2011-06-26T07:44:10Z</time>
      </trkpt>
      <trkpt lat="43.35835" lon="-0.64973">
        <ele>188.075073</ele>
        <time>2011-06-26T07:44:17Z</time>
      </trkpt>
      <trkpt lat="43.35797" lon="-0.65014">
        <ele>188.075073</ele>
        <time>2011-06-26T07:44:29Z</time>
      </trkpt>
      <trkpt lat="43.3577" lon="-0.65037">
        <ele>188.075073</ele>
        <time>2011-06-26T07:44:36Z</time>
      </trkpt>
      <trkpt lat="43.35722" lon="-0.65082">
        <ele>188.555786</ele>
        <time>2011-06-26T07:44:49Z</time>
      </trkpt>
      <trkpt lat="43.35709" lon="-0.65097">
        <ele>188.075073</ele>
        <time>2011-06-26T07:44:53Z</time>
      </trkpt>
      <trkpt lat="43.35699" lon="-0.65107">
        <ele>187.59436</ele>
        <time>2011-06-26T07:44:56Z</time>
      </trkpt>
      <trkpt lat="43.35687" lon="-0.65119">
        <ele>187.59436</ele>
        <time>2011-06-26T07:44:59Z</time>
      </trkpt>
      <trkpt lat="43.35666" lon="-0.65128">
        <ele>186.633179</ele>
        <time>2011-06-26T07:45:03Z</time>
      </trkpt>
      <trkpt lat="43.35639" lon="-0.65131">
        <ele>186.152466</ele>
        <time>2011-06-26T07:45:07Z</time>
      </trkpt>
      <trkpt lat="43.35613" lon="-0.6514">
        <ele>183.749023</ele>
        <time>2011-06-26T07:45:11Z</time>
      </trkpt>
      <trkpt lat="43.35606" lon="-0.65144">
        <ele>183.749023</ele>
        <time>2011-06-26T07:45:12Z</time>
      </trkpt>
      <trkpt lat="43.35556" lon="-0.65159">
        <ele>180.384521</ele>
        <time>2011-06-26T07:45:19Z</time>
      </trkpt>
      <trkpt lat="43.35534" lon="-0.65163">
        <ele>179.423218</ele>
        <time>2011-06-26T07:45:22Z</time>
      </trkpt>
      <trkpt lat="43.35452" lon="-0.65203">
        <ele>177.50061</ele>
        <time>2011-06-26T07:45:34Z</time>
      </trkpt>
      <trkpt lat="43.35421" lon="-0.65229">
        <ele>176.539307</ele>
        <time>2011-06-26T07:45:41Z</time>
      </trkpt>
      <trkpt lat="43.35414" lon="-0.65261">
        <ele>175.577881</ele>
        <time>2011-06-26T07:45:46Z</time>
      </trkpt>
      <trkpt lat="43.35418" lon="-0.65273">
        <ele>176.058594</ele>
        <time>2011-06-26T07:45:48Z</time>
      </trkpt>
      <trkpt lat="43.35445" lon="-0.65321">
        <ele>178.461914</ele>
        <time>2011-06-26T07:46:01Z</time>
      </trkpt>
      <trkpt lat="43.35469" lon="-0.65368">
        <ele>181.345825</ele>
        <time>2011-06-26T07:46:15Z</time>
      </trkpt>
      <trkpt lat="43.35498" lon="-0.65415">
        <ele>184.710571</ele>
        <time>2011-06-26T07:46:31Z</time>
      </trkpt>
      <trkpt lat="43.35511" lon="-0.65458">
        <ele>186.633179</ele>
        <time>2011-06-26T07:46:47Z</time>
      </trkpt>
      <trkpt lat="43.35518" lon="-0.65483">
        <ele>189.036377</ele>
        <time>2011-06-26T07:46:56Z</time>
      </trkpt>
      <trkpt lat="43.35526" lon="-0.65512">
        <ele>192.401123</ele>
        <time>2011-06-26T07:47:06Z</time>
      </trkpt>
      <trkpt lat="43.35545" lon="-0.65577">
        <ele>193.843018</ele>
        <time>2011-06-26T07:47:25Z</time>
      </trkpt>
      <trkpt lat="43.35533" lon="-0.65626">
        <ele>197.20752</ele>
        <time>2011-06-26T07:47:39Z</time>
      </trkpt>
      <trkpt lat="43.35521" lon="-0.65676">
        <ele>197.20752</ele>
        <time>2011-06-26T07:47:52Z</time>
      </trkpt>
      <trkpt lat="43.35519" lon="-0.65737">
        <ele>199.130127</ele>
        <time>2011-06-26T07:48:06Z</time>
      </trkpt>
      <trkpt lat="43.35521" lon="-0.65784">
        <ele>200.572266</ele>
        <time>2011-06-26T07:48:18Z</time>
      </trkpt>
      <trkpt lat="43.35521" lon="-0.65807">
        <ele>201.052856</ele>
        <time>2011-06-26T07:48:24Z</time>
      </trkpt>
      <trkpt lat="43.35527" lon="-0.65826">
        <ele>201.052856</ele>
        <time>2011-06-26T07:48:28Z</time>
      </trkpt>
      <trkpt lat="43.35565" lon="-0.65841">
        <ele>199.61084</ele>
        <time>2011-06-26T07:48:37Z</time>
      </trkpt>
      <trkpt lat="43.35662" lon="-0.65887">
        <ele>200.091675</ele>
        <time>2011-06-26T07:48:55Z</time>
      </trkpt>
      <trkpt lat="43.35735" lon="-0.65952">
        <ele>202.014282</ele>
        <time>2011-06-26T07:49:12Z</time>
      </trkpt>
      <trkpt lat="43.35772" lon="-0.65992">
        <ele>205.378784</ele>
        <time>2011-06-26T07:49:23Z</time>
      </trkpt>
      <trkpt lat="43.358" lon="-0.66032">
        <ele>205.378784</ele>
        <time>2011-06-26T07:49:35Z</time>
      </trkpt>
      <trkpt lat="43.35803" lon="-0.66045">
        <ele>204.41748</ele>
        <time>2011-06-26T07:49:37Z</time>
      </trkpt>
      <trkpt lat="43.35813" lon="-0.66156">
        <ele>201.052856</ele>
        <time>2011-06-26T07:49:48Z</time>
      </trkpt>
      <trkpt lat="43.35845" lon="-0.66291">
        <ele>201.533569</ele>
        <time>2011-06-26T07:50:03Z</time>
      </trkpt>
      <trkpt lat="43.35892" lon="-0.6638">
        <ele>203.93689</ele>
        <time>2011-06-26T07:50:18Z</time>
      </trkpt>
      <trkpt lat="43.35932" lon="-0.66428">
        <ele>207.301392</ele>
        <time>2011-06-26T07:50:32Z</time>
      </trkpt>
      <trkpt lat="43.35935" lon="-0.66431">
        <ele>207.301392</ele>
        <time>2011-06-26T07:50:33Z</time>
      </trkpt>
      <trkpt lat="43.35977" lon="-0.6645">
        <ele>209.704834</ele>
        <time>2011-06-26T07:50:48Z</time>
      </trkpt>
      <trkpt lat="43.36005" lon="-0.66451">
        <ele>209.224121</ele>
        <time>2011-06-26T07:50:55Z</time>
      </trkpt>
      <trkpt lat="43.36073" lon="-0.66453">
        <ele>207.301392</ele>
        <time>2011-06-26T07:51:08Z</time>
      </trkpt>
      <trkpt lat="43.36093" lon="-0.66459">
        <ele>207.301392</ele>
        <time>2011-06-26T07:51:12Z</time>
      </trkpt>
      <trkpt lat="43.36104" lon="-0.66459">
        <ele>206.820679</ele>
        <time>2011-06-26T07:51:14Z</time>
      </trkpt>
      <trkpt lat="43.36129" lon="-0.66453">
        <ele>206.820679</ele>
        <time>2011-06-26T07:51:18Z</time>
      </trkpt>
      <trkpt lat="43.36182" lon="-0.6644">
        <ele>208.743408</ele>
        <time>2011-06-26T07:51:30Z</time>
      </trkpt>
      <trkpt lat="43.36234" lon="-0.66498">
        <ele>206.820679</ele>
        <time>2011-06-26T07:51:43Z</time>
      </trkpt>
      <trkpt lat="43.36297" lon="-0.66549">
        <ele>207.301392</ele>
        <time>2011-06-26T07:51:56Z</time>
      </trkpt>
      <trkpt lat="43.36301" lon="-0.66551">
        <ele>208.262817</ele>
        <time>2011-06-26T07:51:57Z</time>
      </trkpt>
      <trkpt lat="43.36322" lon="-0.66555">
        <ele>210.185425</ele>
        <time>2011-06-26T07:52:02Z</time>
      </trkpt>
      <trkpt lat="43.36348" lon="-0.66554">
        <ele>213.550049</ele>
        <time>2011-06-26T07:52:08Z</time>
      </trkpt>
      <trkpt lat="43.36351" lon="-0.66554">
        <ele>213.550049</ele>
        <time>2011-06-26T07:52:09Z</time>
      </trkpt>
      <trkpt lat="43.3641" lon="-0.66559">
        <ele>214.03064</ele>
        <time>2011-06-26T07:52:23Z</time>
      </trkpt>
      <trkpt lat="43.36419" lon="-0.66561">
        <ele>214.991943</ele>
        <time>2011-06-26T07:52:25Z</time>
      </trkpt>
      <trkpt lat="43.36482" lon="-0.66584">
        <ele>217.875977</ele>
        <time>2011-06-26T07:52:42Z</time>
      </trkpt>
      <trkpt lat="43.36497" lon="-0.66579">
        <ele>219.798584</ele>
        <time>2011-06-26T07:52:48Z</time>
      </trkpt>
      <trkpt lat="43.36502" lon="-0.66574">
        <ele>222.201782</ele>
        <time>2011-06-26T07:52:51Z</time>
      </trkpt>
      <trkpt lat="43.36506" lon="-0.66556">
        <ele>221.240601</ele>
        <time>2011-06-26T07:53:03Z</time>
      </trkpt>
      <trkpt lat="43.36512" lon="-0.66552">
        <ele>220.279175</ele>
        <time>2011-06-26T07:53:15Z</time>
      </trkpt>
      <trkpt lat="43.36512" lon="-0.66552">
        <ele>220.279175</ele>
        <time>2011-06-26T07:53:32Z</time>
      </trkpt>
      <trkpt lat="43.36509" lon="-0.66554">
        <ele>220.759888</ele>
        <time>2011-06-26T07:53:45Z</time>
      </trkpt>
      <trkpt lat="43.36505" lon="-0.66554">
        <ele>219.798584</ele>
        <time>2011-06-26T07:53:59Z</time>
      </trkpt>
      <trkpt lat="43.36502" lon="-0.66544">
        <ele>220.279175</ele>
        <time>2011-06-26T07:54:11Z</time>
      </trkpt>
      <trkpt lat="43.36502" lon="-0.66542">
        <ele>219.798584</ele>
        <time>2011-06-26T07:54:12Z</time>
      </trkpt>
      <trkpt lat="43.365" lon="-0.66529">
        <ele>220.759888</ele>
        <time>2011-06-26T07:54:24Z</time>
      </trkpt>
      <trkpt lat="43.36507" lon="-0.66535">
        <ele>220.279175</ele>
        <time>2011-06-26T07:54:31Z</time>
      </trkpt>
      <trkpt lat="43.36504" lon="-0.66554">
        <ele>220.759888</ele>
        <time>2011-06-26T07:54:46Z</time>
      </trkpt>
      <trkpt lat="43.36504" lon="-0.66555">
        <ele>219.798584</ele>
        <time>2011-06-26T07:54:48Z</time>
      </trkpt>
      <trkpt lat="43.36506" lon="-0.66558">
        <ele>220.759888</ele>
        <time>2011-06-26T07:54:51Z</time>
      </trkpt>
      <trkpt lat="43.36499" lon="-0.66603">
        <ele>221.240601</ele>
        <time>2011-06-26T07:55:04Z</time>
      </trkpt>
      <trkpt lat="43.36487" lon="-0.66674">
        <ele>222.682495</ele>
        <time>2011-06-26T07:55:22Z</time>
      </trkpt>
      <trkpt lat="43.36467" lon="-0.66715">
        <ele>221.721191</ele>
        <time>2011-06-26T07:55:33Z</time>
      </trkpt>
      <trkpt lat="43.36445" lon="-0.66746">
        <ele>220.279175</ele>
        <time>2011-06-26T07:55:44Z</time>
      </trkpt>
      <trkpt lat="43.36412" lon="-0.66771">
        <ele>221.240601</ele>
        <time>2011-06-26T07:55:57Z</time>
      </trkpt>
      <trkpt lat="43.36372" lon="-0.66791">
        <ele>219.317993</ele>
        <time>2011-06-26T07:56:11Z</time>
      </trkpt>
      <trkpt lat="43.36357" lon="-0.66802">
        <ele>219.798584</ele>
        <time>2011-06-26T07:56:16Z</time>
      </trkpt>
      <trkpt lat="43.36336" lon="-0.66824">
        <ele>216.43396</ele>
        <time>2011-06-26T07:56:22Z</time>
      </trkpt>
      <trkpt lat="43.36328" lon="-0.66829">
        <ele>214.51123</ele>
        <time>2011-06-26T07:56:24Z</time>
      </trkpt>
      <trkpt lat="43.36286" lon="-0.66857">
        <ele>211.146729</ele>
        <time>2011-06-26T07:56:35Z</time>
      </trkpt>
      <trkpt lat="43.36268" lon="-0.66869">
        <ele>208.743408</ele>
        <time>2011-06-26T07:56:39Z</time>
      </trkpt>
      <trkpt lat="43.36232" lon="-0.66877">
        <ele>205.859497</ele>
        <time>2011-06-26T07:56:52Z</time>
      </trkpt>
      <trkpt lat="43.36228" lon="-0.66875">
        <ele>206.820679</ele>
        <time>2011-06-26T07:57:04Z</time>
      </trkpt>
      <trkpt lat="43.36223" lon="-0.66881">
        <ele>205.378784</ele>
        <time>2011-06-26T07:57:16Z</time>
      </trkpt>
      <trkpt lat="43.36223" lon="-0.66882">
        <ele>204.41748</ele>
        <time>2011-06-26T07:57:17Z</time>
      </trkpt>
      <trkpt lat="43.36222" lon="-0.66887">
        <ele>204.898071</ele>
        <time>2011-06-26T07:57:22Z</time>
      </trkpt>
      <trkpt lat="43.36211" lon="-0.66897">
        <ele>203.456177</ele>
        <time>2011-06-26T07:57:32Z</time>
      </trkpt>
      <trkpt lat="43.36208" lon="-0.66903">
        <ele>202.975464</ele>
        <time>2011-06-26T07:57:37Z</time>
      </trkpt>
      <trkpt lat="43.3621" lon="-0.66912">
        <ele>203.456177</ele>
        <time>2011-06-26T07:57:41Z</time>
      </trkpt>
      <trkpt lat="43.36211" lon="-0.66954">
        <ele>204.41748</ele>
        <time>2011-06-26T07:57:54Z</time>
      </trkpt>
      <trkpt lat="43.3621" lon="-0.66975">
        <ele>204.41748</ele>
        <time>2011-06-26T07:58:02Z</time>
      </trkpt>
      <trkpt lat="43.36209" lon="-0.6699">
        <ele>205.859497</ele>
        <time>2011-06-26T07:58:09Z</time>
      </trkpt>
      <trkpt lat="43.36207" lon="-0.6701">
        <ele>209.224121</ele>
        <time>2011-06-26T07:58:20Z</time>
      </trkpt>
      <trkpt lat="43.36208" lon="-0.67011">
        <ele>209.224121</ele>
        <time>2011-06-26T07:58:22Z</time>
      </trkpt>
      <trkpt lat="43.36219" lon="-0.67043">
        <ele>208.743408</ele>
        <time>2011-06-26T07:58:33Z</time>
      </trkpt>
      <trkpt lat="43.36223" lon="-0.67053">
        <ele>208.743408</ele>
        <time>2011-06-26T07:58:36Z</time>
      </trkpt>
      <trkpt lat="43.36263" lon="-0.67101">
        <ele>207.301392</ele>
        <time>2011-06-26T07:58:50Z</time>
      </trkpt>
      <trkpt lat="43.36267" lon="-0.67105">
        <ele>207.782104</ele>
        <time>2011-06-26T07:58:51Z</time>
      </trkpt>
      <trkpt lat="43.36297" lon="-0.67121">
        <ele>204.41748</ele>
        <time>2011-06-26T07:58:56Z</time>
      </trkpt>
      <trkpt lat="43.36333" lon="-0.67128">
        <ele>203.456177</ele>
        <time>2011-06-26T07:59:01Z</time>
      </trkpt>
      <trkpt lat="43.36366" lon="-0.67143">
        <ele>202.014282</ele>
        <time>2011-06-26T07:59:05Z</time>
      </trkpt>
      <trkpt lat="43.36399" lon="-0.6717">
        <ele>201.533569</ele>
        <time>2011-06-26T07:59:10Z</time>
      </trkpt>
      <trkpt lat="43.36461" lon="-0.67236">
        <ele>203.456177</ele>
        <time>2011-06-26T07:59:24Z</time>
      </trkpt>
      <trkpt lat="43.36481" lon="-0.67253">
        <ele>206.820679</ele>
        <time>2011-06-26T07:59:31Z</time>
      </trkpt>
      <trkpt lat="43.36483" lon="-0.67256">
        <ele>206.820679</ele>
        <time>2011-06-26T07:59:32Z</time>
      </trkpt>
      <trkpt lat="43.36513" lon="-0.67278">
        <ele>210.666016</ele>
        <time>2011-06-26T07:59:44Z</time>
      </trkpt>
      <trkpt lat="43.36552" lon="-0.67306">
        <ele>211.146729</ele>
        <time>2011-06-26T07:59:59Z</time>
      </trkpt>
      <trkpt lat="43.36608" lon="-0.67338">
        <ele>210.185425</ele>
        <time>2011-06-26T08:00:14Z</time>
      </trkpt>
      <trkpt lat="43.36664" lon="-0.67333">
        <ele>213.069336</ele>
        <time>2011-06-26T08:00:28Z</time>
      </trkpt>
      <trkpt lat="43.36711" lon="-0.67326">
        <ele>216.43396</ele>
        <time>2011-06-26T08:00:43Z</time>
      </trkpt>
      <trkpt lat="43.36745" lon="-0.67324">
        <ele>219.798584</ele>
        <time>2011-06-26T08:00:55Z</time>
      </trkpt>
      <trkpt lat="43.3676" lon="-0.67328">
        <ele>218.83728</ele>
        <time>2011-06-26T08:01:07Z</time>
      </trkpt>
      <trkpt lat="43.3676" lon="-0.67329">
        <ele>218.356567</ele>
        <time>2011-06-26T08:01:37Z</time>
      </trkpt>
      <trkpt lat="43.36768" lon="-0.67332">
        <ele>218.83728</ele>
        <time>2011-06-26T08:01:42Z</time>
      </trkpt>
      <trkpt lat="43.36785" lon="-0.67335">
        <ele>218.83728</ele>
        <time>2011-06-26T08:01:47Z</time>
      </trkpt>
      <trkpt lat="43.36851" lon="-0.67366">
        <ele>217.395386</ele>
        <time>2011-06-26T08:02:00Z</time>
      </trkpt>
      <trkpt lat="43.36902" lon="-0.67399">
        <ele>216.43396</ele>
        <time>2011-06-26T08:02:08Z</time>
      </trkpt>
      <trkpt lat="43.36915" lon="-0.67406">
        <ele>216.914673</ele>
        <time>2011-06-26T08:02:10Z</time>
      </trkpt>
      <trkpt lat="43.36934" lon="-0.6743">
        <ele>215.953247</ele>
        <time>2011-06-26T08:02:14Z</time>
      </trkpt>
      <trkpt lat="43.36943" lon="-0.67451">
        <ele>215.472656</ele>
        <time>2011-06-26T08:02:17Z</time>
      </trkpt>
      <trkpt lat="43.36956" lon="-0.67451">
        <ele>213.550049</ele>
        <time>2011-06-26T08:02:23Z</time>
      </trkpt>
      <trkpt lat="43.36967" lon="-0.67412">
        <ele>210.185425</ele>
        <time>2011-06-26T08:02:29Z</time>
      </trkpt>
      <trkpt lat="43.36972" lon="-0.67405">
        <ele>209.224121</ele>
        <time>2011-06-26T08:02:30Z</time>
      </trkpt>
      <trkpt lat="43.37018" lon="-0.67353">
        <ele>206.340088</ele>
        <time>2011-06-26T08:02:38Z</time>
      </trkpt>
      <trkpt lat="43.37097" lon="-0.67319">
        <ele>204.898071</ele>
        <time>2011-06-26T08:02:50Z</time>
      </trkpt>
      <trkpt lat="43.37173" lon="-0.67294">
        <ele>206.820679</ele>
        <time>2011-06-26T08:03:03Z</time>
      </trkpt>
      <trkpt lat="43.37246" lon="-0.67264">
        <ele>205.859497</ele>
        <time>2011-06-26T08:03:16Z</time>
      </trkpt>
      <trkpt lat="43.37276" lon="-0.67255">
        <ele>206.340088</ele>
        <time>2011-06-26T08:03:21Z</time>
      </trkpt>
      <trkpt lat="43.37304" lon="-0.67262">
        <ele>206.820679</ele>
        <time>2011-06-26T08:03:27Z</time>
      </trkpt>
      <trkpt lat="43.37353" lon="-0.67304">
        <ele>203.93689</ele>
        <time>2011-06-26T08:03:42Z</time>
      </trkpt>
      <trkpt lat="43.37368" lon="-0.6731">
        <ele>200.572266</ele>
        <time>2011-06-26T08:03:46Z</time>
      </trkpt>
      <trkpt lat="43.37377" lon="-0.67314">
        <ele>198.649536</ele>
        <time>2011-06-26T08:03:48Z</time>
      </trkpt>
      <trkpt lat="43.37393" lon="-0.67327">
        <ele>196.726929</ele>
        <time>2011-06-26T08:03:52Z</time>
      </trkpt>
      <trkpt lat="43.37399" lon="-0.67332">
        <ele>193.843018</ele>
        <time>2011-06-26T08:03:54Z</time>
      </trkpt>
      <trkpt lat="43.37408" lon="-0.67358">
        <ele>189.997681</ele>
        <time>2011-06-26T08:03:59Z</time>
      </trkpt>
      <trkpt lat="43.37409" lon="-0.67361">
        <ele>189.997681</ele>
        <time>2011-06-26T08:04:00Z</time>
      </trkpt>
      <trkpt lat="43.37413" lon="-0.67365">
        <ele>188.555786</ele>
        <time>2011-06-26T08:04:02Z</time>
      </trkpt>
      <trkpt lat="43.37418" lon="-0.67366">
        <ele>188.075073</ele>
        <time>2011-06-26T08:04:04Z</time>
      </trkpt>
      <trkpt lat="43.37449" lon="-0.67364">
        <ele>184.710571</ele>
        <time>2011-06-26T08:04:14Z</time>
      </trkpt>
      <trkpt lat="43.37463" lon="-0.6736">
        <ele>179.903809</ele>
        <time>2011-06-26T08:04:18Z</time>
      </trkpt>
      <trkpt lat="43.37478" lon="-0.67353">
        <ele>176.539307</ele>
        <time>2011-06-26T08:04:22Z</time>
      </trkpt>
      <trkpt lat="43.37497" lon="-0.67351">
        <ele>174.135864</ele>
        <time>2011-06-26T08:04:26Z</time>
      </trkpt>
      <trkpt lat="43.37525" lon="-0.67333">
        <ele>173.655273</ele>
        <time>2011-06-26T08:04:32Z</time>
      </trkpt>
      <trkpt lat="43.37544" lon="-0.67321">
        <ele>175.09729</ele>
        <time>2011-06-26T08:04:37Z</time>
      </trkpt>
      <trkpt lat="43.37585" lon="-0.6732">
        <ele>176.539307</ele>
        <time>2011-06-26T08:04:49Z</time>
      </trkpt>
      <trkpt lat="43.37617" lon="-0.67318">
        <ele>177.981201</ele>
        <time>2011-06-26T08:05:01Z</time>
      </trkpt>
      <trkpt lat="43.37633" lon="-0.67314">
        <ele>176.539307</ele>
        <time>2011-06-26T08:05:06Z</time>
      </trkpt>
      <trkpt lat="43.37657" lon="-0.67324">
        <ele>172.213257</ele>
        <time>2011-06-26T08:05:11Z</time>
      </trkpt>
      <trkpt lat="43.37674" lon="-0.67332">
        <ele>168.848755</ele>
        <time>2011-06-26T08:05:15Z</time>
      </trkpt>
      <trkpt lat="43.37687" lon="-0.67334">
        <ele>165.484131</ele>
        <time>2011-06-26T08:05:18Z</time>
      </trkpt>
      <trkpt lat="43.377" lon="-0.67333">
        <ele>162.119507</ele>
        <time>2011-06-26T08:05:21Z</time>
      </trkpt>
      <trkpt lat="43.3771" lon="-0.67329">
        <ele>160.196899</ele>
        <time>2011-06-26T08:05:24Z</time>
      </trkpt>
      <trkpt lat="43.37726" lon="-0.67299">
        <ele>157.793579</ele>
        <time>2011-06-26T08:05:31Z</time>
      </trkpt>
      <trkpt lat="43.37728" lon="-0.6726">
        <ele>156.351562</ele>
        <time>2011-06-26T08:05:37Z</time>
      </trkpt>
      <trkpt lat="43.37721" lon="-0.67232">
        <ele>154.909546</ele>
        <time>2011-06-26T08:05:41Z</time>
      </trkpt>
      <trkpt lat="43.37703" lon="-0.67204">
        <ele>156.351562</ele>
        <time>2011-06-26T08:05:47Z</time>
      </trkpt>
      <trkpt lat="43.37665" lon="-0.67168">
        <ele>152.506348</ele>
        <time>2011-06-26T08:05:59Z</time>
      </trkpt>
      <trkpt lat="43.37661" lon="-0.67165">
        <ele>152.506348</ele>
        <time>2011-06-26T08:06:00Z</time>
      </trkpt>
      <trkpt lat="43.37651" lon="-0.67151">
        <ele>149.141602</ele>
        <time>2011-06-26T08:06:04Z</time>
      </trkpt>
      <trkpt lat="43.37642" lon="-0.67125">
        <ele>144.815796</ele>
        <time>2011-06-26T08:06:09Z</time>
      </trkpt>
      <trkpt lat="43.37638" lon="-0.67116">
        <ele>143.373657</ele>
        <time>2011-06-26T08:06:11Z</time>
      </trkpt>
      <trkpt lat="43.37621" lon="-0.67086">
        <ele>140.970459</ele>
        <time>2011-06-26T08:06:21Z</time>
      </trkpt>
      <trkpt lat="43.37621" lon="-0.67082">
        <ele>141.45105</ele>
        <time>2011-06-26T08:06:27Z</time>
      </trkpt>
      <trkpt lat="43.37616" lon="-0.67072">
        <ele>140.009155</ele>
        <time>2011-06-26T08:06:32Z</time>
      </trkpt>
      <trkpt lat="43.37612" lon="-0.67061">
        <ele>139.047852</ele>
        <time>2011-06-26T08:06:43Z</time>
      </trkpt>
      <trkpt lat="43.37608" lon="-0.67047">
        <ele>137.605835</ele>
        <time>2011-06-26T08:06:56Z</time>
      </trkpt>
      <trkpt lat="43.37607" lon="-0.67036">
        <ele>135.202515</ele>
        <time>2011-06-26T08:07:07Z</time>
      </trkpt>
      <trkpt lat="43.37608" lon="-0.67035">
        <ele>136.644653</ele>
        <time>2011-06-26T08:07:09Z</time>
      </trkpt>
      <trkpt lat="43.37614" lon="-0.6703">
        <ele>137.605835</ele>
        <time>2011-06-26T08:07:14Z</time>
      </trkpt>
      <trkpt lat="43.37621" lon="-0.67022">
        <ele>138.567261</ele>
        <time>2011-06-26T08:07:20Z</time>
      </trkpt>
      <trkpt lat="43.37623" lon="-0.67009">
        <ele>139.047852</ele>
        <time>2011-06-26T08:07:32Z</time>
      </trkpt>
      <trkpt lat="43.37624" lon="-0.67002">
        <ele>140.009155</ele>
        <time>2011-06-26T08:07:38Z</time>
      </trkpt>
      <trkpt lat="43.37631" lon="-0.66998">
        <ele>141.931763</ele>
        <time>2011-06-26T08:07:43Z</time>
      </trkpt>
      <trkpt lat="43.37647" lon="-0.66999">
        <ele>144.815796</ele>
        <time>2011-06-26T08:07:55Z</time>
      </trkpt>
      <trkpt lat="43.37663" lon="-0.66999">
        <ele>147.699707</ele>
        <time>2011-06-26T08:08:09Z</time>
      </trkpt>
      <trkpt lat="43.37674" lon="-0.66992">
        <ele>149.141602</ele>
        <time>2011-06-26T08:08:20Z</time>
      </trkpt>
      <trkpt lat="43.37689" lon="-0.66996">
        <ele>151.544922</ele>
        <time>2011-06-26T08:08:31Z</time>
      </trkpt>
      <trkpt lat="43.37696" lon="-0.66997">
        <ele>152.986938</ele>
        <time>2011-06-26T08:08:36Z</time>
      </trkpt>
      <trkpt lat="43.37715" lon="-0.66997">
        <ele>155.870972</ele>
        <time>2011-06-26T08:08:52Z</time>
      </trkpt>
      <trkpt lat="43.37728" lon="-0.66988">
        <ele>158.754761</ele>
        <time>2011-06-26T08:09:06Z</time>
      </trkpt>
      <trkpt lat="43.37728" lon="-0.66985">
        <ele>159.716187</ele>
        <time>2011-06-26T08:09:08Z</time>
      </trkpt>
      <trkpt lat="43.37725" lon="-0.66975">
        <ele>161.158203</ele>
        <time>2011-06-26T08:09:14Z</time>
      </trkpt>
      <trkpt lat="43.37721" lon="-0.66963">
        <ele>162.600098</ele>
        <time>2011-06-26T08:09:29Z</time>
      </trkpt>
      <trkpt lat="43.37721" lon="-0.66958">
        <ele>164.042114</ele>
        <time>2011-06-26T08:09:40Z</time>
      </trkpt>
      <trkpt lat="43.37716" lon="-0.66937">
        <ele>165.484131</ele>
        <time>2011-06-26T08:09:52Z</time>
      </trkpt>
      <trkpt lat="43.37713" lon="-0.66914">
        <ele>168.848755</ele>
        <time>2011-06-26T08:10:02Z</time>
      </trkpt>
      <trkpt lat="43.37708" lon="-0.66885">
        <ele>171.732666</ele>
        <time>2011-06-26T08:10:14Z</time>
      </trkpt>
      <trkpt lat="43.37707" lon="-0.66883">
        <ele>171.732666</ele>
        <time>2011-06-26T08:10:15Z</time>
      </trkpt>
      <trkpt lat="43.37704" lon="-0.66852">
        <ele>174.135864</ele>
        <time>2011-06-26T08:10:30Z</time>
      </trkpt>
      <trkpt lat="43.37702" lon="-0.66846">
        <ele>175.577881</ele>
        <time>2011-06-26T08:10:33Z</time>
      </trkpt>
      <trkpt lat="43.37697" lon="-0.6682">
        <ele>178.942627</ele>
        <time>2011-06-26T08:10:45Z</time>
      </trkpt>
      <trkpt lat="43.37685" lon="-0.66778">
        <ele>178.461914</ele>
        <time>2011-06-26T08:11:00Z</time>
      </trkpt>
      <trkpt lat="43.37682" lon="-0.66744">
        <ele>179.903809</ele>
        <time>2011-06-26T08:11:11Z</time>
      </trkpt>
      <trkpt lat="43.37677" lon="-0.66693">
        <ele>181.345825</ele>
        <time>2011-06-26T08:11:25Z</time>
      </trkpt>
      <trkpt lat="43.3766" lon="-0.66599">
        <ele>184.229858</ele>
        <time>2011-06-26T08:11:44Z</time>
      </trkpt>
      <trkpt lat="43.37651" lon="-0.66544">
        <ele>181.345825</ele>
        <time>2011-06-26T08:11:55Z</time>
      </trkpt>
      <trkpt lat="43.37663" lon="-0.66538">
        <ele>181.345825</ele>
        <time>2011-06-26T08:11:59Z</time>
      </trkpt>
      <trkpt lat="43.37744" lon="-0.6655">
        <ele>177.50061</ele>
        <time>2011-06-26T08:12:14Z</time>
      </trkpt>
      <trkpt lat="43.37751" lon="-0.6655">
        <ele>177.981201</ele>
        <time>2011-06-26T08:12:15Z</time>
      </trkpt>
      <trkpt lat="43.37758" lon="-0.6655">
        <ele>177.981201</ele>
        <time>2011-06-26T08:12:16Z</time>
      </trkpt>
      <trkpt lat="43.37783" lon="-0.66563">
        <ele>176.058594</ele>
        <time>2011-06-26T08:12:20Z</time>
      </trkpt>
      <trkpt lat="43.37832" lon="-0.66622">
        <ele>174.616577</ele>
        <time>2011-06-26T08:12:33Z</time>
      </trkpt>
      <trkpt lat="43.37878" lon="-0.66727">
        <ele>172.69397</ele>
        <time>2011-06-26T08:12:48Z</time>
      </trkpt>
      <trkpt lat="43.37894" lon="-0.66738">
        <ele>171.732666</ele>
        <time>2011-06-26T08:12:56Z</time>
      </trkpt>
      <trkpt lat="43.37894" lon="-0.66742">
        <ele>170.771362</ele>
        <time>2011-06-26T08:13:07Z</time>
      </trkpt>
      <trkpt lat="43.37897" lon="-0.66753">
        <ele>171.252075</ele>
        <time>2011-06-26T08:13:23Z</time>
      </trkpt>
      <trkpt lat="43.37897" lon="-0.66755">
        <ele>170.771362</ele>
        <time>2011-06-26T08:13:41Z</time>
      </trkpt>
      <trkpt lat="43.37897" lon="-0.66755">
        <ele>171.252075</ele>
        <time>2011-06-26T08:14:08Z</time>
      </trkpt>
      <trkpt lat="43.37898" lon="-0.66754">
        <ele>170.771362</ele>
        <time>2011-06-26T08:14:30Z</time>
      </trkpt>
      <trkpt lat="43.37898" lon="-0.66756">
        <ele>170.771362</ele>
        <time>2011-06-26T08:14:50Z</time>
      </trkpt>
      <trkpt lat="43.37896" lon="-0.66752">
        <ele>170.290649</ele>
        <time>2011-06-26T08:15:14Z</time>
      </trkpt>
      <trkpt lat="43.37895" lon="-0.66751">
        <ele>171.252075</ele>
        <time>2011-06-26T08:15:16Z</time>
      </trkpt>
      <trkpt lat="43.37893" lon="-0.66744">
        <ele>170.290649</ele>
        <time>2011-06-26T08:15:21Z</time>
      </trkpt>
      <trkpt lat="43.37892" lon="-0.6674">
        <ele>170.771362</ele>
        <time>2011-06-26T08:15:24Z</time>
      </trkpt>
      <trkpt lat="43.37893" lon="-0.66737">
        <ele>171.252075</ele>
        <time>2011-06-26T08:15:32Z</time>
      </trkpt>
      <trkpt lat="43.37895" lon="-0.66748">
        <ele>170.771362</ele>
        <time>2011-06-26T08:15:40Z</time>
      </trkpt>
      <trkpt lat="43.37903" lon="-0.66757">
        <ele>171.252075</ele>
        <time>2011-06-26T08:15:52Z</time>
      </trkpt>
      <trkpt lat="43.37908" lon="-0.66773">
        <ele>171.732666</ele>
        <time>2011-06-26T08:16:04Z</time>
      </trkpt>
      <trkpt lat="43.37909" lon="-0.66773">
        <ele>171.252075</ele>
        <time>2011-06-26T08:16:15Z</time>
      </trkpt>
      <trkpt lat="43.37919" lon="-0.66789">
        <ele>171.732666</ele>
        <time>2011-06-26T08:16:38Z</time>
      </trkpt>
      <trkpt lat="43.37937" lon="-0.66841">
        <ele>174.616577</ele>
        <time>2011-06-26T08:16:52Z</time>
      </trkpt>
      <trkpt lat="43.37956" lon="-0.66874">
        <ele>177.50061</ele>
        <time>2011-06-26T08:17:03Z</time>
      </trkpt>
      <trkpt lat="43.37971" lon="-0.66895">
        <ele>178.461914</ele>
        <time>2011-06-26T08:17:10Z</time>
      </trkpt>
      <trkpt lat="43.37985" lon="-0.66941">
        <ele>180.865234</ele>
        <time>2011-06-26T08:17:23Z</time>
      </trkpt>
      <trkpt lat="43.38003" lon="-0.66999">
        <ele>180.865234</ele>
        <time>2011-06-26T08:17:36Z</time>
      </trkpt>
      <trkpt lat="43.38041" lon="-0.67096">
        <ele>177.981201</ele>
        <time>2011-06-26T08:17:52Z</time>
      </trkpt>
      <trkpt lat="43.38047" lon="-0.6711">
        <ele>176.539307</ele>
        <time>2011-06-26T08:17:54Z</time>
      </trkpt>
      <trkpt lat="43.38057" lon="-0.67127">
        <ele>175.09729</ele>
        <time>2011-06-26T08:17:57Z</time>
      </trkpt>
      <trkpt lat="43.38062" lon="-0.6714">
        <ele>172.69397</ele>
        <time>2011-06-26T08:18:00Z</time>
      </trkpt>
      <trkpt lat="43.38063" lon="-0.67142">
        <ele>172.213257</ele>
        <time>2011-06-26T08:18:01Z</time>
      </trkpt>
      <trkpt lat="43.38083" lon="-0.67174">
        <ele>168.848755</ele>
        <time>2011-06-26T08:18:11Z</time>
      </trkpt>
      <trkpt lat="43.38099" lon="-0.67191">
        <ele>165.484131</ele>
        <time>2011-06-26T08:18:16Z</time>
      </trkpt>
      <trkpt lat="43.38106" lon="-0.67199">
        <ele>164.042114</ele>
        <time>2011-06-26T08:18:18Z</time>
      </trkpt>
      <trkpt lat="43.38121" lon="-0.67228">
        <ele>159.235474</ele>
        <time>2011-06-26T08:18:23Z</time>
      </trkpt>
      <trkpt lat="43.38127" lon="-0.67239">
        <ele>157.793579</ele>
        <time>2011-06-26T08:18:25Z</time>
      </trkpt>
      <trkpt lat="43.38137" lon="-0.67255">
        <ele>154.428955</ele>
        <time>2011-06-26T08:18:28Z</time>
      </trkpt>
      <trkpt lat="43.38148" lon="-0.67272">
        <ele>150.583618</ele>
        <time>2011-06-26T08:18:32Z</time>
      </trkpt>
      <trkpt lat="43.38152" lon="-0.67281">
        <ele>149.622314</ele>
        <time>2011-06-26T08:18:34Z</time>
      </trkpt>
      <trkpt lat="43.38153" lon="-0.67306">
        <ele>147.218994</ele>
        <time>2011-06-26T08:18:40Z</time>
      </trkpt>
      <trkpt lat="43.38155" lon="-0.67319">
        <ele>145.7771</ele>
        <time>2011-06-26T08:18:43Z</time>
      </trkpt>
      <trkpt lat="43.38172" lon="-0.67366">
        <ele>144.335205</ele>
        <time>2011-06-26T08:18:55Z</time>
      </trkpt>
      <trkpt lat="43.3817" lon="-0.67378">
        <ele>143.373657</ele>
        <time>2011-06-26T08:18:58Z</time>
      </trkpt>
      <trkpt lat="43.3817" lon="-0.67383">
        <ele>142.412476</ele>
        <time>2011-06-26T08:18:59Z</time>
      </trkpt>
      <trkpt lat="43.38177" lon="-0.67416">
        <ele>138.567261</ele>
        <time>2011-06-26T08:19:06Z</time>
      </trkpt>
      <trkpt lat="43.38181" lon="-0.6746">
        <ele>135.683105</ele>
        <time>2011-06-26T08:19:16Z</time>
      </trkpt>
      <trkpt lat="43.38181" lon="-0.6747">
        <ele>133.760498</ele>
        <time>2011-06-26T08:19:19Z</time>
      </trkpt>
      <trkpt lat="43.3818" lon="-0.67479">
        <ele>131.3573</ele>
        <time>2011-06-26T08:19:22Z</time>
      </trkpt>
      <trkpt lat="43.38179" lon="-0.67481">
        <ele>131.3573</ele>
        <time>2011-06-26T08:19:23Z</time>
      </trkpt>
      <trkpt lat="43.38177" lon="-0.67486">
        <ele>129.434692</ele>
        <time>2011-06-26T08:19:25Z</time>
      </trkpt>
      <trkpt lat="43.38176" lon="-0.67494">
        <ele>128.473389</ele>
        <time>2011-06-26T08:19:30Z</time>
      </trkpt>
      <trkpt lat="43.38186" lon="-0.67506">
        <ele>127.511963</ele>
        <time>2011-06-26T08:19:35Z</time>
      </trkpt>
      <trkpt lat="43.3819" lon="-0.67506">
        <ele>126.550659</ele>
        <time>2011-06-26T08:19:37Z</time>
      </trkpt>
      <trkpt lat="43.38198" lon="-0.67504">
        <ele>124.628052</ele>
        <time>2011-06-26T08:19:41Z</time>
      </trkpt>
      <trkpt lat="43.38215" lon="-0.67497">
        <ele>122.224731</ele>
        <time>2011-06-26T08:19:51Z</time>
      </trkpt>
      <trkpt lat="43.38221" lon="-0.67467">
        <ele>121.744141</ele>
        <time>2011-06-26T08:20:04Z</time>
      </trkpt>
      <trkpt lat="43.38226" lon="-0.67453">
        <ele>121.26355</ele>
        <time>2011-06-26T08:20:14Z</time>
      </trkpt>
      <trkpt lat="43.38231" lon="-0.67442">
        <ele>121.26355</ele>
        <time>2011-06-26T08:20:29Z</time>
      </trkpt>
      <trkpt lat="43.3824" lon="-0.67427">
        <ele>120.782837</ele>
        <time>2011-06-26T08:20:43Z</time>
      </trkpt>
      <trkpt lat="43.38253" lon="-0.67401">
        <ele>120.782837</ele>
        <time>2011-06-26T08:20:55Z</time>
      </trkpt>
      <trkpt lat="43.3826" lon="-0.67391">
        <ele>121.26355</ele>
        <time>2011-06-26T08:21:00Z</time>
      </trkpt>
      <trkpt lat="43.38272" lon="-0.67378">
        <ele>121.26355</ele>
        <time>2011-06-26T08:21:11Z</time>
      </trkpt>
      <trkpt lat="43.38279" lon="-0.67362">
        <ele>120.782837</ele>
        <time>2011-06-26T08:21:27Z</time>
      </trkpt>
      <trkpt lat="43.38297" lon="-0.67338">
        <ele>120.302124</ele>
        <time>2011-06-26T08:21:40Z</time>
      </trkpt>
      <trkpt lat="43.38309" lon="-0.67324">
        <ele>121.26355</ele>
        <time>2011-06-26T08:21:51Z</time>
      </trkpt>
      <trkpt lat="43.38328" lon="-0.67301">
        <ele>120.782837</ele>
        <time>2011-06-26T08:22:03Z</time>
      </trkpt>
      <trkpt lat="43.38353" lon="-0.67277">
        <ele>119.821411</ele>
        <time>2011-06-26T08:22:18Z</time>
      </trkpt>
      <trkpt lat="43.38373" lon="-0.67253">
        <ele>120.302124</ele>
        <time>2011-06-26T08:22:31Z</time>
      </trkpt>
      <trkpt lat="43.38397" lon="-0.67237">
        <ele>120.302124</ele>
        <time>2011-06-26T08:22:44Z</time>
      </trkpt>
      <trkpt lat="43.38426" lon="-0.67226">
        <ele>121.744141</ele>
        <time>2011-06-26T08:22:58Z</time>
      </trkpt>
      <trkpt lat="43.38443" lon="-0.6727">
        <ele>120.782837</ele>
        <time>2011-06-26T08:23:08Z</time>
      </trkpt>
      <trkpt lat="43.38454" lon="-0.67299">
        <ele>121.26355</ele>
        <time>2011-06-26T08:23:13Z</time>
      </trkpt>
      <trkpt lat="43.38465" lon="-0.67323">
        <ele>121.26355</ele>
        <time>2011-06-26T08:23:17Z</time>
      </trkpt>
      <trkpt lat="43.38486" lon="-0.67361">
        <ele>120.302124</ele>
        <time>2011-06-26T08:23:23Z</time>
      </trkpt>
      <trkpt lat="43.38517" lon="-0.67422">
        <ele>119.821411</ele>
        <time>2011-06-26T08:23:32Z</time>
      </trkpt>
      <trkpt lat="43.38546" lon="-0.67537">
        <ele>119.821411</ele>
        <time>2011-06-26T08:23:47Z</time>
      </trkpt>
      <trkpt lat="43.3857" lon="-0.67592">
        <ele>120.302124</ele>
        <time>2011-06-26T08:23:55Z</time>
      </trkpt>
      <trkpt lat="43.38576" lon="-0.67604">
        <ele>120.302124</ele>
        <time>2011-06-26T08:23:57Z</time>
      </trkpt>
      <trkpt lat="43.38589" lon="-0.6762">
        <ele>120.782837</ele>
        <time>2011-06-26T08:24:00Z</time>
      </trkpt>
      <trkpt lat="43.38646" lon="-0.67696">
        <ele>120.782837</ele>
        <time>2011-06-26T08:24:15Z</time>
      </trkpt>
      <trkpt lat="43.38652" lon="-0.67701">
        <ele>120.302124</ele>
        <time>2011-06-26T08:24:16Z</time>
      </trkpt>
      <trkpt lat="43.38678" lon="-0.6774">
        <ele>117.418213</ele>
        <time>2011-06-26T08:24:21Z</time>
      </trkpt>
      <trkpt lat="43.38694" lon="-0.67777">
        <ele>117.418213</ele>
        <time>2011-06-26T08:24:25Z</time>
      </trkpt>
      <trkpt lat="43.38716" lon="-0.67797">
        <ele>115.976196</ele>
        <time>2011-06-26T08:24:29Z</time>
      </trkpt>
      <trkpt lat="43.38736" lon="-0.67806">
        <ele>115.976196</ele>
        <time>2011-06-26T08:24:32Z</time>
      </trkpt>
      <trkpt lat="43.38799" lon="-0.67869">
        <ele>115.014893</ele>
        <time>2011-06-26T08:24:43Z</time>
      </trkpt>
      <trkpt lat="43.38817" lon="-0.67884">
        <ele>115.014893</ele>
        <time>2011-06-26T08:24:46Z</time>
      </trkpt>
      <trkpt lat="43.3885" lon="-0.67923">
        <ele>115.976196</ele>
        <time>2011-06-26T08:24:53Z</time>
      </trkpt>
      <trkpt lat="43.38866" lon="-0.67937">
        <ele>115.495605</ele>
        <time>2011-06-26T08:24:56Z</time>
      </trkpt>
      <trkpt lat="43.38904" lon="-0.67964">
        <ele>115.976196</ele>
        <time>2011-06-26T08:25:03Z</time>
      </trkpt>
      <trkpt lat="43.38973" lon="-0.67981">
        <ele>114.53418</ele>
        <time>2011-06-26T08:25:14Z</time>
      </trkpt>
      <trkpt lat="43.39035" lon="-0.68008">
        <ele>113.572998</ele>
        <time>2011-06-26T08:25:24Z</time>
      </trkpt>
      <trkpt lat="43.39109" lon="-0.6805">
        <ele>113.092285</ele>
        <time>2011-06-26T08:25:36Z</time>
      </trkpt>
      <trkpt lat="43.39132" lon="-0.68075">
        <ele>113.092285</ele>
        <time>2011-06-26T08:25:41Z</time>
      </trkpt>
      <trkpt lat="43.39184" lon="-0.68149">
        <ele>110.688843</ele>
        <time>2011-06-26T08:25:52Z</time>
      </trkpt>
      <trkpt lat="43.39227" lon="-0.68197">
        <ele>110.688843</ele>
        <time>2011-06-26T08:25:59Z</time>
      </trkpt>
      <trkpt lat="43.3924" lon="-0.68227">
        <ele>111.650269</ele>
        <time>2011-06-26T08:26:03Z</time>
      </trkpt>
      <trkpt lat="43.39243" lon="-0.68241">
        <ele>112.130981</ele>
        <time>2011-06-26T08:26:05Z</time>
      </trkpt>
      <trkpt lat="43.39262" lon="-0.68269">
        <ele>114.53418</ele>
        <time>2011-06-26T08:26:12Z</time>
      </trkpt>
      <trkpt lat="43.39265" lon="-0.6827">
        <ele>115.014893</ele>
        <time>2011-06-26T08:26:13Z</time>
      </trkpt>
      <trkpt lat="43.39293" lon="-0.68287">
        <ele>116.9375</ele>
        <time>2011-06-26T08:26:22Z</time>
      </trkpt>
      <trkpt lat="43.39313" lon="-0.6832">
        <ele>120.302124</ele>
        <time>2011-06-26T08:26:32Z</time>
      </trkpt>
      <trkpt lat="43.39317" lon="-0.68377">
        <ele>123.666748</ele>
        <time>2011-06-26T08:26:46Z</time>
      </trkpt>
      <trkpt lat="43.39331" lon="-0.68436">
        <ele>126.550659</ele>
        <time>2011-06-26T08:27:01Z</time>
      </trkpt>
      <trkpt lat="43.39348" lon="-0.68447">
        <ele>128.473389</ele>
        <time>2011-06-26T08:27:07Z</time>
      </trkpt>
      <trkpt lat="43.3939" lon="-0.68458">
        <ele>131.3573</ele>
        <time>2011-06-26T08:27:23Z</time>
      </trkpt>
      <trkpt lat="43.39408" lon="-0.68443">
        <ele>130.395996</ele>
        <time>2011-06-26T08:27:29Z</time>
      </trkpt>
      <trkpt lat="43.39441" lon="-0.6843">
        <ele>128.954102</ele>
        <time>2011-06-26T08:27:36Z</time>
      </trkpt>
      <trkpt lat="43.39465" lon="-0.68435">
        <ele>127.992554</ele>
        <time>2011-06-26T08:27:40Z</time>
      </trkpt>
      <trkpt lat="43.39495" lon="-0.68445">
        <ele>127.031372</ele>
        <time>2011-06-26T08:27:46Z</time>
      </trkpt>
      <trkpt lat="43.39545" lon="-0.68448">
        <ele>125.108765</ele>
        <time>2011-06-26T08:27:56Z</time>
      </trkpt>
      <trkpt lat="43.39583" lon="-0.6844">
        <ele>124.147339</ele>
        <time>2011-06-26T08:28:04Z</time>
      </trkpt>
      <trkpt lat="43.39597" lon="-0.68442">
        <ele>123.186157</ele>
        <time>2011-06-26T08:28:08Z</time>
      </trkpt>
      <trkpt lat="43.39638" lon="-0.68408">
        <ele>120.782837</ele>
        <time>2011-06-26T08:28:23Z</time>
      </trkpt>
      <trkpt lat="43.39648" lon="-0.68411">
        <ele>117.898804</ele>
        <time>2011-06-26T08:28:27Z</time>
      </trkpt>
      <trkpt lat="43.39655" lon="-0.68414">
        <ele>114.53418</ele>
        <time>2011-06-26T08:28:30Z</time>
      </trkpt>
      <trkpt lat="43.39664" lon="-0.68417">
        <ele>111.169556</ele>
        <time>2011-06-26T08:28:33Z</time>
      </trkpt>
      <trkpt lat="43.39676" lon="-0.6842">
        <ele>110.688843</ele>
        <time>2011-06-26T08:28:36Z</time>
      </trkpt>
      <trkpt lat="43.39691" lon="-0.68448">
        <ele>113.092285</ele>
        <time>2011-06-26T08:28:47Z</time>
      </trkpt>
      <trkpt lat="43.39701" lon="-0.68467">
        <ele>115.976196</ele>
        <time>2011-06-26T08:28:56Z</time>
      </trkpt>
      <trkpt lat="43.39715" lon="-0.68477">
        <ele>117.418213</ele>
        <time>2011-06-26T08:29:04Z</time>
      </trkpt>
      <trkpt lat="43.39723" lon="-0.6847">
        <ele>117.898804</ele>
        <time>2011-06-26T08:29:09Z</time>
      </trkpt>
      <trkpt lat="43.3975" lon="-0.68429">
        <ele>116.9375</ele>
        <time>2011-06-26T08:29:20Z</time>
      </trkpt>
      <trkpt lat="43.39765" lon="-0.68406">
        <ele>117.418213</ele>
        <time>2011-06-26T08:29:25Z</time>
      </trkpt>
      <trkpt lat="43.39786" lon="-0.68371">
        <ele>116.456787</ele>
        <time>2011-06-26T08:29:32Z</time>
      </trkpt>
      <trkpt lat="43.39807" lon="-0.68339">
        <ele>115.495605</ele>
        <time>2011-06-26T08:29:38Z</time>
      </trkpt>
      <trkpt lat="43.39837" lon="-0.68311">
        <ele>115.014893</ele>
        <time>2011-06-26T08:29:45Z</time>
      </trkpt>
      <trkpt lat="43.39886" lon="-0.68232">
        <ele>111.169556</ele>
        <time>2011-06-26T08:29:56Z</time>
      </trkpt>
      <trkpt lat="43.39894" lon="-0.68215">
        <ele>110.688843</ele>
        <time>2011-06-26T08:29:58Z</time>
      </trkpt>
      <trkpt lat="43.39901" lon="-0.68199">
        <ele>109.246948</ele>
        <time>2011-06-26T08:30:00Z</time>
      </trkpt>
      <trkpt lat="43.3991" lon="-0.68187">
        <ele>108.285645</ele>
        <time>2011-06-26T08:30:02Z</time>
      </trkpt>
      <trkpt lat="43.39919" lon="-0.68182">
        <ele>107.324341</ele>
        <time>2011-06-26T08:30:04Z</time>
      </trkpt>
      <trkpt lat="43.39927" lon="-0.68182">
        <ele>107.805054</ele>
        <time>2011-06-26T08:30:06Z</time>
      </trkpt>
      <trkpt lat="43.39943" lon="-0.68171">
        <ele>108.285645</ele>
        <time>2011-06-26T08:30:11Z</time>
      </trkpt>
      <trkpt lat="43.39958" lon="-0.68153">
        <ele>107.805054</ele>
        <time>2011-06-26T08:30:15Z</time>
      </trkpt>
      <trkpt lat="43.40009" lon="-0.68097">
        <ele>104.921021</ele>
        <time>2011-06-26T08:30:24Z</time>
      </trkpt>
      <trkpt lat="43.40095" lon="-0.68006">
        <ele>101.075684</ele>
        <time>2011-06-26T08:30:37Z</time>
      </trkpt>
      <trkpt lat="43.40191" lon="-0.67938">
        <ele>100.595093</ele>
        <time>2011-06-26T08:30:51Z</time>
      </trkpt>
      <trkpt lat="43.40271" lon="-0.67891">
        <ele>99.153076</ele>
        <time>2011-06-26T08:31:03Z</time>
      </trkpt>
      <trkpt lat="43.40319" lon="-0.67867">
        <ele>99.153076</ele>
        <time>2011-06-26T08:31:10Z</time>
      </trkpt>
      <trkpt lat="43.40347" lon="-0.67869">
        <ele>99.633789</ele>
        <time>2011-06-26T08:31:14Z</time>
      </trkpt>
      <trkpt lat="43.40403" lon="-0.6786">
        <ele>98.672485</ele>
        <time>2011-06-26T08:31:24Z</time>
      </trkpt>
      <trkpt lat="43.40398" lon="-0.67844">
        <ele>98.672485</ele>
        <time>2011-06-26T08:31:27Z</time>
      </trkpt>
      <trkpt lat="43.40388" lon="-0.67799">
        <ele>98.672485</ele>
        <time>2011-06-26T08:31:34Z</time>
      </trkpt>
      <trkpt lat="43.40393" lon="-0.67787">
        <ele>98.672485</ele>
        <time>2011-06-26T08:31:36Z</time>
      </trkpt>
      <trkpt lat="43.40423" lon="-0.67734">
        <ele>101.075684</ele>
        <time>2011-06-26T08:31:46Z</time>
      </trkpt>
      <trkpt lat="43.40439" lon="-0.67721">
        <ele>101.075684</ele>
        <time>2011-06-26T08:31:50Z</time>
      </trkpt>
      <trkpt lat="43.40455" lon="-0.67703">
        <ele>102.998291</ele>
        <time>2011-06-26T08:31:55Z</time>
      </trkpt>
      <trkpt lat="43.40473" lon="-0.67663">
        <ele>106.363037</ele>
        <time>2011-06-26T08:32:05Z</time>
      </trkpt>
      <trkpt lat="43.40475" lon="-0.67659">
        <ele>106.363037</ele>
        <time>2011-06-26T08:32:06Z</time>
      </trkpt>
      <trkpt lat="43.40495" lon="-0.67613">
        <ele>109.727661</ele>
        <time>2011-06-26T08:32:19Z</time>
      </trkpt>
      <trkpt lat="43.40498" lon="-0.67552">
        <ele>111.169556</ele>
        <time>2011-06-26T08:32:34Z</time>
      </trkpt>
      <trkpt lat="43.40497" lon="-0.6753">
        <ele>111.169556</ele>
        <time>2011-06-26T08:32:38Z</time>
      </trkpt>
      <trkpt lat="43.40487" lon="-0.67499">
        <ele>111.169556</ele>
        <time>2011-06-26T08:32:44Z</time>
      </trkpt>
      <trkpt lat="43.40445" lon="-0.67435">
        <ele>108.766235</ele>
        <time>2011-06-26T08:32:56Z</time>
      </trkpt>
      <trkpt lat="43.40429" lon="-0.67382">
        <ele>106.843628</ele>
        <time>2011-06-26T08:33:03Z</time>
      </trkpt>
      <trkpt lat="43.40411" lon="-0.67357">
        <ele>106.843628</ele>
        <time>2011-06-26T08:33:08Z</time>
      </trkpt>
      <trkpt lat="43.40375" lon="-0.67328">
        <ele>110.208252</ele>
        <time>2011-06-26T08:33:20Z</time>
      </trkpt>
      <trkpt lat="43.40344" lon="-0.67291">
        <ele>113.572998</ele>
        <time>2011-06-26T08:33:36Z</time>
      </trkpt>
      <trkpt lat="43.40329" lon="-0.67266">
        <ele>115.495605</ele>
        <time>2011-06-26T08:33:50Z</time>
      </trkpt>
      <trkpt lat="43.40326" lon="-0.6726">
        <ele>116.456787</ele>
        <time>2011-06-26T08:33:54Z</time>
      </trkpt>
      <trkpt lat="43.40321" lon="-0.67246">
        <ele>119.34082</ele>
        <time>2011-06-26T08:34:02Z</time>
      </trkpt>
      <trkpt lat="43.40322" lon="-0.67236">
        <ele>120.302124</ele>
        <time>2011-06-26T08:34:08Z</time>
      </trkpt>
      <trkpt lat="43.40325" lon="-0.67223">
        <ele>121.26355</ele>
        <time>2011-06-26T08:34:15Z</time>
      </trkpt>
      <trkpt lat="43.40337" lon="-0.67201">
        <ele>122.224731</ele>
        <time>2011-06-26T08:34:29Z</time>
      </trkpt>
      <trkpt lat="43.40347" lon="-0.67183">
        <ele>125.589355</ele>
        <time>2011-06-26T08:34:40Z</time>
      </trkpt>
      <trkpt lat="43.40356" lon="-0.67159">
        <ele>127.992554</ele>
        <time>2011-06-26T08:34:53Z</time>
      </trkpt>
      <trkpt lat="43.40346" lon="-0.67125">
        <ele>131.3573</ele>
        <time>2011-06-26T08:35:09Z</time>
      </trkpt>
      <trkpt lat="43.40315" lon="-0.67078">
        <ele>133.760498</ele>
        <time>2011-06-26T08:35:33Z</time>
      </trkpt>
      <trkpt lat="43.40305" lon="-0.67047">
        <ele>136.644653</ele>
        <time>2011-06-26T08:35:47Z</time>
      </trkpt>
      <trkpt lat="43.40297" lon="-0.67015">
        <ele>140.009155</ele>
        <time>2011-06-26T08:36:02Z</time>
      </trkpt>
      <trkpt lat="43.40293" lon="-0.66992">
        <ele>143.373657</ele>
        <time>2011-06-26T08:36:14Z</time>
      </trkpt>
      <trkpt lat="43.40291" lon="-0.66985">
        <ele>144.815796</ele>
        <time>2011-06-26T08:36:18Z</time>
      </trkpt>
      <trkpt lat="43.40285" lon="-0.66957">
        <ele>147.699707</ele>
        <time>2011-06-26T08:36:34Z</time>
      </trkpt>
      <trkpt lat="43.40285" lon="-0.66953">
        <ele>148.661011</ele>
        <time>2011-06-26T08:36:36Z</time>
      </trkpt>
      <trkpt lat="43.40291" lon="-0.66929">
        <ele>151.544922</ele>
        <time>2011-06-26T08:36:52Z</time>
      </trkpt>
      <trkpt lat="43.40295" lon="-0.66901">
        <ele>154.909546</ele>
        <time>2011-06-26T08:37:08Z</time>
      </trkpt>
      <trkpt lat="43.40297" lon="-0.66889">
        <ele>156.832153</ele>
        <time>2011-06-26T08:37:14Z</time>
      </trkpt>
      <trkpt lat="43.40299" lon="-0.66873">
        <ele>158.754761</ele>
        <time>2011-06-26T08:37:23Z</time>
      </trkpt>
      <trkpt lat="43.40301" lon="-0.66857">
        <ele>162.119507</ele>
        <time>2011-06-26T08:37:31Z</time>
      </trkpt>
      <trkpt lat="43.40305" lon="-0.66823">
        <ele>164.042114</ele>
        <time>2011-06-26T08:37:47Z</time>
      </trkpt>
      <trkpt lat="43.40301" lon="-0.66768">
        <ele>165.484131</ele>
        <time>2011-06-26T08:38:03Z</time>
      </trkpt>
      <trkpt lat="43.40286" lon="-0.66703">
        <ele>166.926025</ele>
        <time>2011-06-26T08:38:20Z</time>
      </trkpt>
      <trkpt lat="43.40276" lon="-0.66657">
        <ele>169.810059</ele>
        <time>2011-06-26T08:38:32Z</time>
      </trkpt>
      <trkpt lat="43.40275" lon="-0.66626">
        <ele>173.655273</ele>
        <time>2011-06-26T08:38:41Z</time>
      </trkpt>
      <trkpt lat="43.40275" lon="-0.66623">
        <ele>173.655273</ele>
        <time>2011-06-26T08:38:42Z</time>
      </trkpt>
      <trkpt lat="43.40284" lon="-0.66558">
        <ele>176.058594</ele>
        <time>2011-06-26T08:39:01Z</time>
      </trkpt>
      <trkpt lat="43.40286" lon="-0.66526">
        <ele>179.903809</ele>
        <time>2011-06-26T08:39:11Z</time>
      </trkpt>
      <trkpt lat="43.40285" lon="-0.66491">
        <ele>183.268433</ele>
        <time>2011-06-26T08:39:24Z</time>
      </trkpt>
      <trkpt lat="43.40288" lon="-0.66446">
        <ele>186.152466</ele>
        <time>2011-06-26T08:39:40Z</time>
      </trkpt>
      <trkpt lat="43.40278" lon="-0.66396">
        <ele>188.075073</ele>
        <time>2011-06-26T08:39:58Z</time>
      </trkpt>
      <trkpt lat="43.40227" lon="-0.6634">
        <ele>189.997681</ele>
        <time>2011-06-26T08:40:16Z</time>
      </trkpt>
      <trkpt lat="43.40169" lon="-0.66278">
        <ele>189.997681</ele>
        <time>2011-06-26T08:40:34Z</time>
      </trkpt>
      <trkpt lat="43.4016" lon="-0.6627">
        <ele>189.516968</ele>
        <time>2011-06-26T08:40:36Z</time>
      </trkpt>
      <trkpt lat="43.40139" lon="-0.66251">
        <ele>188.555786</ele>
        <time>2011-06-26T08:40:40Z</time>
      </trkpt>
      <trkpt lat="43.40128" lon="-0.66242">
        <ele>186.152466</ele>
        <time>2011-06-26T08:40:42Z</time>
      </trkpt>
      <trkpt lat="43.40114" lon="-0.66248">
        <ele>183.749023</ele>
        <time>2011-06-26T08:40:47Z</time>
      </trkpt>
      <trkpt lat="43.40116" lon="-0.66274">
        <ele>184.229858</ele>
        <time>2011-06-26T08:40:52Z</time>
      </trkpt>
      <trkpt lat="43.40137" lon="-0.66357">
        <ele>181.826416</ele>
        <time>2011-06-26T08:41:07Z</time>
      </trkpt>
      <trkpt lat="43.4014" lon="-0.6637">
        <ele>180.384521</ele>
        <time>2011-06-26T08:41:10Z</time>
      </trkpt>
      <trkpt lat="43.40142" lon="-0.66391">
        <ele>178.942627</ele>
        <time>2011-06-26T08:41:14Z</time>
      </trkpt>
      <trkpt lat="43.40141" lon="-0.66405">
        <ele>177.50061</ele>
        <time>2011-06-26T08:41:17Z</time>
      </trkpt>
      <trkpt lat="43.40137" lon="-0.66443">
        <ele>174.135864</ele>
        <time>2011-06-26T08:41:25Z</time>
      </trkpt>
      <trkpt lat="43.40139" lon="-0.66473">
        <ele>170.771362</ele>
        <time>2011-06-26T08:41:33Z</time>
      </trkpt>
      <trkpt lat="43.4014" lon="-0.66483">
        <ele>169.810059</ele>
        <time>2011-06-26T08:41:35Z</time>
      </trkpt>
      <trkpt lat="43.40143" lon="-0.66509">
        <ele>166.926025</ele>
        <time>2011-06-26T08:41:40Z</time>
      </trkpt>
      <trkpt lat="43.40141" lon="-0.6652">
        <ele>166.926025</ele>
        <time>2011-06-26T08:41:43Z</time>
      </trkpt>
      <trkpt lat="43.40121" lon="-0.66525">
        <ele>165.484131</ele>
        <time>2011-06-26T08:41:49Z</time>
      </trkpt>
      <trkpt lat="43.40114" lon="-0.66523">
        <ele>165.003418</ele>
        <time>2011-06-26T08:41:51Z</time>
      </trkpt>
      <trkpt lat="43.40106" lon="-0.66519">
        <ele>163.561523</ele>
        <time>2011-06-26T08:41:54Z</time>
      </trkpt>
      <trkpt lat="43.40076" lon="-0.66487">
        <ele>161.158203</ele>
        <time>2011-06-26T08:42:05Z</time>
      </trkpt>
      <trkpt lat="43.40063" lon="-0.66478">
        <ele>158.27417</ele>
        <time>2011-06-26T08:42:10Z</time>
      </trkpt>
      <trkpt lat="43.40049" lon="-0.66485">
        <ele>154.909546</ele>
        <time>2011-06-26T08:42:16Z</time>
      </trkpt>
      <trkpt lat="43.4003" lon="-0.66493">
        <ele>152.025757</ele>
        <time>2011-06-26T08:42:21Z</time>
      </trkpt>
      <trkpt lat="43.40012" lon="-0.66503">
        <ele>148.661011</ele>
        <time>2011-06-26T08:42:26Z</time>
      </trkpt>
      <trkpt lat="43.40008" lon="-0.66506">
        <ele>148.661011</ele>
        <time>2011-06-26T08:42:27Z</time>
      </trkpt>
      <trkpt lat="43.3999" lon="-0.66521">
        <ele>144.815796</ele>
        <time>2011-06-26T08:42:32Z</time>
      </trkpt>
      <trkpt lat="43.39973" lon="-0.66535">
        <ele>142.893066</ele>
        <time>2011-06-26T08:42:36Z</time>
      </trkpt>
      <trkpt lat="43.39946" lon="-0.6656">
        <ele>139.528442</ele>
        <time>2011-06-26T08:42:42Z</time>
      </trkpt>
      <trkpt lat="43.39928" lon="-0.66574">
        <ele>137.125244</ele>
        <time>2011-06-26T08:42:46Z</time>
      </trkpt>
      <trkpt lat="43.39906" lon="-0.66586">
        <ele>134.241211</ele>
        <time>2011-06-26T08:42:51Z</time>
      </trkpt>
      <trkpt lat="43.39874" lon="-0.666">
        <ele>129.915283</ele>
        <time>2011-06-26T08:42:58Z</time>
      </trkpt>
      <trkpt lat="43.39845" lon="-0.66614">
        <ele>127.031372</ele>
        <time>2011-06-26T08:43:07Z</time>
      </trkpt>
      <trkpt lat="43.39849" lon="-0.66632">
        <ele>125.108765</ele>
        <time>2011-06-26T08:43:13Z</time>
      </trkpt>
      <trkpt lat="43.39837" lon="-0.66645">
        <ele>124.147339</ele>
        <time>2011-06-26T08:43:18Z</time>
      </trkpt>
      <trkpt lat="43.39831" lon="-0.6664">
        <ele>123.186157</ele>
        <time>2011-06-26T08:43:20Z</time>
      </trkpt>
      <trkpt lat="43.39823" lon="-0.66631">
        <ele>121.744141</ele>
        <time>2011-06-26T08:43:23Z</time>
      </trkpt>
      <trkpt lat="43.39814" lon="-0.6662">
        <ele>121.744141</ele>
        <time>2011-06-26T08:43:27Z</time>
      </trkpt>
      <trkpt lat="43.39775" lon="-0.66622">
        <ele>117.898804</ele>
        <time>2011-06-26T08:43:36Z</time>
      </trkpt>
      <trkpt lat="43.39772" lon="-0.66627">
        <ele>117.898804</ele>
        <time>2011-06-26T08:43:37Z</time>
      </trkpt>
      <trkpt lat="43.39763" lon="-0.66639">
        <ele>116.456787</ele>
        <time>2011-06-26T08:43:40Z</time>
      </trkpt>
      <trkpt lat="43.39749" lon="-0.6664">
        <ele>115.495605</ele>
        <time>2011-06-26T08:43:43Z</time>
      </trkpt>
      <trkpt lat="43.39733" lon="-0.66636">
        <ele>113.572998</ele>
        <time>2011-06-26T08:43:46Z</time>
      </trkpt>
      <trkpt lat="43.39689" lon="-0.66639">
        <ele>109.727661</ele>
        <time>2011-06-26T08:43:54Z</time>
      </trkpt>
      <trkpt lat="43.39677" lon="-0.66643">
        <ele>107.805054</ele>
        <time>2011-06-26T08:43:56Z</time>
      </trkpt>
      <trkpt lat="43.39658" lon="-0.66651">
        <ele>105.882446</ele>
        <time>2011-06-26T08:43:59Z</time>
      </trkpt>
      <trkpt lat="43.39647" lon="-0.66658">
        <ele>104.921021</ele>
        <time>2011-06-26T08:44:01Z</time>
      </trkpt>
      <trkpt lat="43.39605" lon="-0.66716">
        <ele>102.998291</ele>
        <time>2011-06-26T08:44:12Z</time>
      </trkpt>
      <trkpt lat="43.39539" lon="-0.66782">
        <ele>104.921021</ele>
        <time>2011-06-26T08:44:29Z</time>
      </trkpt>
      <trkpt lat="43.39527" lon="-0.66794">
        <ele>106.363037</ele>
        <time>2011-06-26T08:44:33Z</time>
      </trkpt>
      <trkpt lat="43.39527" lon="-0.66807">
        <ele>107.324341</ele>
        <time>2011-06-26T08:44:37Z</time>
      </trkpt>
      <trkpt lat="43.39536" lon="-0.66831">
        <ele>107.324341</ele>
        <time>2011-06-26T08:44:42Z</time>
      </trkpt>
      <trkpt lat="43.39577" lon="-0.66923">
        <ele>108.766235</ele>
        <time>2011-06-26T08:44:59Z</time>
      </trkpt>
      <trkpt lat="43.39621" lon="-0.67019">
        <ele>111.169556</ele>
        <time>2011-06-26T08:45:18Z</time>
      </trkpt>
      <trkpt lat="43.39656" lon="-0.67081">
        <ele>114.53418</ele>
        <time>2011-06-26T08:45:36Z</time>
      </trkpt>
      <trkpt lat="43.39657" lon="-0.67106">
        <ele>116.9375</ele>
        <time>2011-06-26T08:45:43Z</time>
      </trkpt>
      <trkpt lat="43.39657" lon="-0.6712">
        <ele>118.379395</ele>
        <time>2011-06-26T08:45:47Z</time>
      </trkpt>
      <trkpt lat="43.39674" lon="-0.67174">
        <ele>117.418213</ele>
        <time>2011-06-26T08:45:59Z</time>
      </trkpt>
      <trkpt lat="43.3969" lon="-0.67221">
        <ele>114.053589</ele>
        <time>2011-06-26T08:46:04Z</time>
      </trkpt>
      <trkpt lat="43.39707" lon="-0.67252">
        <ele>112.611572</ele>
        <time>2011-06-26T08:46:07Z</time>
      </trkpt>
      <trkpt lat="43.39723" lon="-0.67264">
        <ele>112.130981</ele>
        <time>2011-06-26T08:46:09Z</time>
      </trkpt>
      <trkpt lat="43.39762" lon="-0.67288">
        <ele>115.495605</ele>
        <time>2011-06-26T08:46:17Z</time>
      </trkpt>
      <trkpt lat="43.39764" lon="-0.67291">
        <ele>115.495605</ele>
        <time>2011-06-26T08:46:18Z</time>
      </trkpt>
      <trkpt lat="43.39781" lon="-0.67313">
        <ele>118.379395</ele>
        <time>2011-06-26T08:46:26Z</time>
      </trkpt>
      <trkpt lat="43.39821" lon="-0.67351">
        <ele>118.860107</ele>
        <time>2011-06-26T08:46:40Z</time>
      </trkpt>
      <trkpt lat="43.39859" lon="-0.67392">
        <ele>118.379395</ele>
        <time>2011-06-26T08:46:49Z</time>
      </trkpt>
      <trkpt lat="43.39903" lon="-0.67441">
        <ele>117.898804</ele>
        <time>2011-06-26T08:46:59Z</time>
      </trkpt>
      <trkpt lat="43.39918" lon="-0.67479">
        <ele>115.495605</ele>
        <time>2011-06-26T08:47:03Z</time>
      </trkpt>
      <trkpt lat="43.39944" lon="-0.67536">
        <ele>113.572998</ele>
        <time>2011-06-26T08:47:09Z</time>
      </trkpt>
      <trkpt lat="43.39964" lon="-0.6755">
        <ele>115.495605</ele>
        <time>2011-06-26T08:47:13Z</time>
      </trkpt>
      <trkpt lat="43.39988" lon="-0.67586">
        <ele>118.379395</ele>
        <time>2011-06-26T08:47:24Z</time>
      </trkpt>
      <trkpt lat="43.40016" lon="-0.67664">
        <ele>117.898804</ele>
        <time>2011-06-26T08:47:40Z</time>
      </trkpt>
      <trkpt lat="43.40002" lon="-0.67689">
        <ele>119.34082</ele>
        <time>2011-06-26T08:47:48Z</time>
      </trkpt>
      <trkpt lat="43.39991" lon="-0.67683">
        <ele>119.821411</ele>
        <time>2011-06-26T08:47:52Z</time>
      </trkpt>
      <trkpt lat="43.39956" lon="-0.67669">
        <ele>122.224731</ele>
        <time>2011-06-26T08:48:06Z</time>
      </trkpt>
      <trkpt lat="43.39911" lon="-0.67664">
        <ele>123.666748</ele>
        <time>2011-06-26T08:48:21Z</time>
      </trkpt>
      <trkpt lat="43.39881" lon="-0.67659">
        <ele>124.628052</ele>
        <time>2011-06-26T08:48:32Z</time>
      </trkpt>
      <trkpt lat="43.39854" lon="-0.67668">
        <ele>126.069946</ele>
        <time>2011-06-26T08:48:41Z</time>
      </trkpt>
      <trkpt lat="43.39831" lon="-0.67677">
        <ele>127.511963</ele>
        <time>2011-06-26T08:48:53Z</time>
      </trkpt>
      <trkpt lat="43.39824" lon="-0.67679">
        <ele>127.031372</ele>
        <time>2011-06-26T08:48:56Z</time>
      </trkpt>
      <trkpt lat="43.39821" lon="-0.67676">
        <ele>127.031372</ele>
        <time>2011-06-26T08:49:01Z</time>
      </trkpt>
      <trkpt lat="43.39817" lon="-0.67662">
        <ele>127.511963</ele>
        <time>2011-06-26T08:49:11Z</time>
      </trkpt>
      <trkpt lat="43.39815" lon="-0.67657">
        <ele>126.069946</ele>
        <time>2011-06-26T08:49:14Z</time>
      </trkpt>
      <trkpt lat="43.39808" lon="-0.67656">
        <ele>126.069946</ele>
        <time>2011-06-26T08:49:19Z</time>
      </trkpt>
      <trkpt lat="43.39782" lon="-0.67667">
        <ele>128.473389</ele>
        <time>2011-06-26T08:49:39Z</time>
      </trkpt>
      <trkpt lat="43.39763" lon="-0.67679">
        <ele>131.837891</ele>
        <time>2011-06-26T08:49:56Z</time>
      </trkpt>
      <trkpt lat="43.39761" lon="-0.6768">
        <ele>131.837891</ele>
        <time>2011-06-26T08:49:58Z</time>
      </trkpt>
      <trkpt lat="43.39741" lon="-0.67685">
        <ele>135.683105</ele>
        <time>2011-06-26T08:50:18Z</time>
      </trkpt>
      <trkpt lat="43.39724" lon="-0.67688">
        <ele>137.125244</ele>
        <time>2011-06-26T08:50:31Z</time>
      </trkpt>
      <trkpt lat="43.39694" lon="-0.67684">
        <ele>139.047852</ele>
        <time>2011-06-26T08:50:50Z</time>
      </trkpt>
      <trkpt lat="43.3967" lon="-0.67679">
        <ele>141.931763</ele>
        <time>2011-06-26T08:51:06Z</time>
      </trkpt>
      <trkpt lat="43.39656" lon="-0.67667">
        <ele>144.815796</ele>
        <time>2011-06-26T08:51:18Z</time>
      </trkpt>
      <trkpt lat="43.3964" lon="-0.67679">
        <ele>147.218994</ele>
        <time>2011-06-26T08:51:33Z</time>
      </trkpt>
      <trkpt lat="43.39618" lon="-0.67681">
        <ele>150.103027</ele>
        <time>2011-06-26T08:51:51Z</time>
      </trkpt>
      <trkpt lat="43.39602" lon="-0.67681">
        <ele>153.467651</ele>
        <time>2011-06-26T08:52:07Z</time>
      </trkpt>
      <trkpt lat="43.39599" lon="-0.67681">
        <ele>153.948364</ele>
        <time>2011-06-26T08:52:10Z</time>
      </trkpt>
      <trkpt lat="43.39592" lon="-0.67671">
        <ele>156.832153</ele>
        <time>2011-06-26T08:52:20Z</time>
      </trkpt>
      <trkpt lat="43.39571" lon="-0.67659">
        <ele>159.235474</ele>
        <time>2011-06-26T08:52:37Z</time>
      </trkpt>
      <trkpt lat="43.39551" lon="-0.67654">
        <ele>159.716187</ele>
        <time>2011-06-26T08:52:52Z</time>
      </trkpt>
      <trkpt lat="43.39542" lon="-0.67651">
        <ele>161.158203</ele>
        <time>2011-06-26T08:53:00Z</time>
      </trkpt>
      <trkpt lat="43.3954" lon="-0.6765">
        <ele>159.716187</ele>
        <time>2011-06-26T08:53:02Z</time>
      </trkpt>
      <trkpt lat="43.39519" lon="-0.67636">
        <ele>159.235474</ele>
        <time>2011-06-26T08:53:10Z</time>
      </trkpt>
      <trkpt lat="43.39489" lon="-0.67621">
        <ele>158.754761</ele>
        <time>2011-06-26T08:53:21Z</time>
      </trkpt>
      <trkpt lat="43.39446" lon="-0.67607">
        <ele>158.754761</ele>
        <time>2011-06-26T08:53:37Z</time>
      </trkpt>
      <trkpt lat="43.39421" lon="-0.67596">
        <ele>160.196899</ele>
        <time>2011-06-26T08:53:48Z</time>
      </trkpt>
      <trkpt lat="43.39419" lon="-0.67594">
        <ele>161.158203</ele>
        <time>2011-06-26T08:53:51Z</time>
      </trkpt>
      <trkpt lat="43.39401" lon="-0.67583">
        <ele>164.042114</ele>
        <time>2011-06-26T08:54:06Z</time>
      </trkpt>
      <trkpt lat="43.39392" lon="-0.67577">
        <ele>167.406738</ele>
        <time>2011-06-26T08:54:15Z</time>
      </trkpt>
      <trkpt lat="43.39377" lon="-0.67566">
        <ele>170.290649</ele>
        <time>2011-06-26T08:54:32Z</time>
      </trkpt>
      <trkpt lat="43.39365" lon="-0.67557">
        <ele>173.655273</ele>
        <time>2011-06-26T08:54:45Z</time>
      </trkpt>
      <trkpt lat="43.39357" lon="-0.67551">
        <ele>174.616577</ele>
        <time>2011-06-26T08:54:58Z</time>
      </trkpt>
      <trkpt lat="43.39335" lon="-0.67509">
        <ele>175.09729</ele>
        <time>2011-06-26T08:55:15Z</time>
      </trkpt>
      <trkpt lat="43.39328" lon="-0.67493">
        <ele>174.135864</ele>
        <time>2011-06-26T08:55:19Z</time>
      </trkpt>
      <trkpt lat="43.39316" lon="-0.67477">
        <ele>173.655273</ele>
        <time>2011-06-26T08:55:23Z</time>
      </trkpt>
      <trkpt lat="43.39293" lon="-0.67459">
        <ele>172.69397</ele>
        <time>2011-06-26T08:55:28Z</time>
      </trkpt>
      <trkpt lat="43.39231" lon="-0.67453">
        <ele>170.290649</ele>
        <time>2011-06-26T08:55:37Z</time>
      </trkpt>
      <trkpt lat="43.39192" lon="-0.67438">
        <ele>170.771362</ele>
        <time>2011-06-26T08:55:44Z</time>
      </trkpt>
      <trkpt lat="43.39166" lon="-0.67393">
        <ele>171.732666</ele>
        <time>2011-06-26T08:55:53Z</time>
      </trkpt>
      <trkpt lat="43.39137" lon="-0.67403">
        <ele>173.174683</ele>
        <time>2011-06-26T08:56:01Z</time>
      </trkpt>
      <trkpt lat="43.39115" lon="-0.67441">
        <ele>176.058594</ele>
        <time>2011-06-26T08:56:13Z</time>
      </trkpt>
      <trkpt lat="43.39096" lon="-0.67475">
        <ele>179.423218</ele>
        <time>2011-06-26T08:56:27Z</time>
      </trkpt>
      <trkpt lat="43.39072" lon="-0.67483">
        <ele>182.307129</ele>
        <time>2011-06-26T08:56:41Z</time>
      </trkpt>
      <trkpt lat="43.39071" lon="-0.67444">
        <ele>183.749023</ele>
        <time>2011-06-26T08:56:55Z</time>
      </trkpt>
      <trkpt lat="43.39069" lon="-0.6742">
        <ele>185.671753</ele>
        <time>2011-06-26T08:57:04Z</time>
      </trkpt>
      <trkpt lat="43.39057" lon="-0.67391">
        <ele>189.036377</ele>
        <time>2011-06-26T08:57:16Z</time>
      </trkpt>
      <trkpt lat="43.39042" lon="-0.67363">
        <ele>191.920288</ele>
        <time>2011-06-26T08:57:29Z</time>
      </trkpt>
      <trkpt lat="43.39019" lon="-0.67308">
        <ele>193.843018</ele>
        <time>2011-06-26T08:57:50Z</time>
      </trkpt>
      <trkpt lat="43.39002" lon="-0.67252">
        <ele>196.726929</ele>
        <time>2011-06-26T08:58:08Z</time>
      </trkpt>
      <trkpt lat="43.38975" lon="-0.67208">
        <ele>199.130127</ele>
        <time>2011-06-26T08:58:25Z</time>
      </trkpt>
      <trkpt lat="43.38927" lon="-0.67179">
        <ele>199.130127</ele>
        <time>2011-06-26T08:58:41Z</time>
      </trkpt>
      <trkpt lat="43.38905" lon="-0.6717">
        <ele>199.130127</ele>
        <time>2011-06-26T08:58:47Z</time>
      </trkpt>
      <trkpt lat="43.38849" lon="-0.67128">
        <ele>198.168945</ele>
        <time>2011-06-26T08:58:59Z</time>
      </trkpt>
      <trkpt lat="43.38828" lon="-0.67098">
        <ele>195.284912</ele>
        <time>2011-06-26T08:59:03Z</time>
      </trkpt>
      <trkpt lat="43.38813" lon="-0.67061">
        <ele>191.920288</ele>
        <time>2011-06-26T08:59:08Z</time>
      </trkpt>
      <trkpt lat="43.38813" lon="-0.67056">
        <ele>191.920288</ele>
        <time>2011-06-26T08:59:10Z</time>
      </trkpt>
      <trkpt lat="43.3882" lon="-0.67046">
        <ele>190.958984</ele>
        <time>2011-06-26T08:59:14Z</time>
      </trkpt>
      <trkpt lat="43.38824" lon="-0.6703">
        <ele>188.075073</ele>
        <time>2011-06-26T08:59:17Z</time>
      </trkpt>
      <trkpt lat="43.38826" lon="-0.67012">
        <ele>186.152466</ele>
        <time>2011-06-26T08:59:19Z</time>
      </trkpt>
      <trkpt lat="43.38829" lon="-0.66993">
        <ele>185.671753</ele>
        <time>2011-06-26T08:59:21Z</time>
      </trkpt>
      <trkpt lat="43.38833" lon="-0.66975">
        <ele>185.671753</ele>
        <time>2011-06-26T08:59:23Z</time>
      </trkpt>
      <trkpt lat="43.38836" lon="-0.66957">
        <ele>184.710571</ele>
        <time>2011-06-26T08:59:25Z</time>
      </trkpt>
      <trkpt lat="43.38843" lon="-0.66927">
        <ele>182.787842</ele>
        <time>2011-06-26T08:59:29Z</time>
      </trkpt>
      <trkpt lat="43.38849" lon="-0.66908">
        <ele>182.307129</ele>
        <time>2011-06-26T08:59:32Z</time>
      </trkpt>
      <trkpt lat="43.38851" lon="-0.66878">
        <ele>178.942627</ele>
        <time>2011-06-26T08:59:37Z</time>
      </trkpt>
      <trkpt lat="43.38844" lon="-0.66859">
        <ele>177.02002</ele>
        <time>2011-06-26T08:59:41Z</time>
      </trkpt>
      <trkpt lat="43.38825" lon="-0.6682">
        <ele>174.135864</ele>
        <time>2011-06-26T08:59:48Z</time>
      </trkpt>
      <trkpt lat="43.38816" lon="-0.668">
        <ele>170.771362</ele>
        <time>2011-06-26T08:59:52Z</time>
      </trkpt>
      <trkpt lat="43.38801" lon="-0.66778">
        <ele>167.406738</ele>
        <time>2011-06-26T09:00:02Z</time>
      </trkpt>
      <trkpt lat="43.388" lon="-0.66779">
        <ele>167.887329</ele>
        <time>2011-06-26T09:00:05Z</time>
      </trkpt>
      <trkpt lat="43.38798" lon="-0.66782">
        <ele>167.887329</ele>
        <time>2011-06-26T09:00:08Z</time>
      </trkpt>
      <trkpt lat="43.38795" lon="-0.66781">
        <ele>168.848755</ele>
        <time>2011-06-26T09:00:11Z</time>
      </trkpt>
      <trkpt lat="43.38794" lon="-0.66778">
        <ele>167.887329</ele>
        <time>2011-06-26T09:00:13Z</time>
      </trkpt>
      <trkpt lat="43.38795" lon="-0.66774">
        <ele>166.926025</ele>
        <time>2011-06-26T09:00:18Z</time>
      </trkpt>
      <trkpt lat="43.38799" lon="-0.66762">
        <ele>167.406738</ele>
        <time>2011-06-26T09:00:29Z</time>
      </trkpt>
      <trkpt lat="43.38814" lon="-0.66723">
        <ele>165.003418</ele>
        <time>2011-06-26T09:00:40Z</time>
      </trkpt>
      <trkpt lat="43.3883" lon="-0.66684">
        <ele>162.119507</ele>
        <time>2011-06-26T09:00:50Z</time>
      </trkpt>
      <trkpt lat="43.38834" lon="-0.66614">
        <ele>161.158203</ele>
        <time>2011-06-26T09:01:06Z</time>
      </trkpt>
      <trkpt lat="43.38832" lon="-0.66554">
        <ele>159.716187</ele>
        <time>2011-06-26T09:01:20Z</time>
      </trkpt>
      <trkpt lat="43.38844" lon="-0.66526">
        <ele>156.351562</ele>
        <time>2011-06-26T09:01:27Z</time>
      </trkpt>
      <trkpt lat="43.38849" lon="-0.66457">
        <ele>154.909546</ele>
        <time>2011-06-26T09:01:42Z</time>
      </trkpt>
      <trkpt lat="43.38845" lon="-0.6642">
        <ele>154.428955</ele>
        <time>2011-06-26T09:01:51Z</time>
      </trkpt>
      <trkpt lat="43.38852" lon="-0.66396">
        <ele>153.948364</ele>
        <time>2011-06-26T09:01:55Z</time>
      </trkpt>
      <trkpt lat="43.38853" lon="-0.6637">
        <ele>150.103027</ele>
        <time>2011-06-26T09:01:59Z</time>
      </trkpt>
      <trkpt lat="43.38858" lon="-0.66353">
        <ele>148.18042</ele>
        <time>2011-06-26T09:02:02Z</time>
      </trkpt>
      <trkpt lat="43.38862" lon="-0.66343">
        <ele>147.218994</ele>
        <time>2011-06-26T09:02:04Z</time>
      </trkpt>
      <trkpt lat="43.38863" lon="-0.66334">
        <ele>145.7771</ele>
        <time>2011-06-26T09:02:06Z</time>
      </trkpt>
      <trkpt lat="43.38868" lon="-0.66324">
        <ele>145.296387</ele>
        <time>2011-06-26T09:02:08Z</time>
      </trkpt>
      <trkpt lat="43.38879" lon="-0.66316">
        <ele>144.815796</ele>
        <time>2011-06-26T09:02:10Z</time>
      </trkpt>
      <trkpt lat="43.38905" lon="-0.66285">
        <ele>140.970459</ele>
        <time>2011-06-26T09:02:15Z</time>
      </trkpt>
      <trkpt lat="43.38919" lon="-0.66263">
        <ele>137.125244</ele>
        <time>2011-06-26T09:02:18Z</time>
      </trkpt>
      <trkpt lat="43.38941" lon="-0.66233">
        <ele>132.799316</ele>
        <time>2011-06-26T09:02:22Z</time>
      </trkpt>
      <trkpt lat="43.38952" lon="-0.66218">
        <ele>131.3573</ele>
        <time>2011-06-26T09:02:24Z</time>
      </trkpt>
      <trkpt lat="43.38963" lon="-0.66203">
        <ele>129.434692</ele>
        <time>2011-06-26T09:02:26Z</time>
      </trkpt>
      <trkpt lat="43.38973" lon="-0.66187">
        <ele>127.031372</ele>
        <time>2011-06-26T09:02:28Z</time>
      </trkpt>
      <trkpt lat="43.38982" lon="-0.66143">
        <ele>123.666748</ele>
        <time>2011-06-26T09:02:33Z</time>
      </trkpt>
      <trkpt lat="43.38981" lon="-0.66134">
        <ele>124.147339</ele>
        <time>2011-06-26T09:02:34Z</time>
      </trkpt>
      <trkpt lat="43.38979" lon="-0.66118">
        <ele>123.186157</ele>
        <time>2011-06-26T09:02:36Z</time>
      </trkpt>
      <trkpt lat="43.3899" lon="-0.66087">
        <ele>119.821411</ele>
        <time>2011-06-26T09:02:41Z</time>
      </trkpt>
      <trkpt lat="43.39018" lon="-0.66052">
        <ele>115.976196</ele>
        <time>2011-06-26T09:02:47Z</time>
      </trkpt>
      <trkpt lat="43.39041" lon="-0.66033">
        <ele>114.053589</ele>
        <time>2011-06-26T09:02:51Z</time>
      </trkpt>
      <trkpt lat="43.39073" lon="-0.66024">
        <ele>113.092285</ele>
        <time>2011-06-26T09:02:56Z</time>
      </trkpt>
      <trkpt lat="43.39098" lon="-0.66025">
        <ele>110.208252</ele>
        <time>2011-06-26T09:03:01Z</time>
      </trkpt>
      <trkpt lat="43.391" lon="-0.66025">
        <ele>109.727661</ele>
        <time>2011-06-26T09:03:02Z</time>
      </trkpt>
      <trkpt lat="43.39097" lon="-0.66008">
        <ele>109.246948</ele>
        <time>2011-06-26T09:03:09Z</time>
      </trkpt>
      <trkpt lat="43.39071" lon="-0.65986">
        <ele>109.246948</ele>
        <time>2011-06-26T09:03:18Z</time>
      </trkpt>
      <trkpt lat="43.39009" lon="-0.65968">
        <ele>112.130981</ele>
        <time>2011-06-26T09:03:33Z</time>
      </trkpt>
      <trkpt lat="43.39005" lon="-0.65965">
        <ele>112.130981</ele>
        <time>2011-06-26T09:03:34Z</time>
      </trkpt>
      <trkpt lat="43.38982" lon="-0.65926">
        <ele>111.169556</ele>
        <time>2011-06-26T09:03:42Z</time>
      </trkpt>
      <trkpt lat="43.38967" lon="-0.65812">
        <ele>111.169556</ele>
        <time>2011-06-26T09:03:58Z</time>
      </trkpt>
      <trkpt lat="43.38965" lon="-0.65758">
        <ele>109.727661</ele>
        <time>2011-06-26T09:04:08Z</time>
      </trkpt>
      <trkpt lat="43.38956" lon="-0.65732">
        <ele>108.285645</ele>
        <time>2011-06-26T09:04:20Z</time>
      </trkpt>
      <trkpt lat="43.38953" lon="-0.65716">
        <ele>108.766235</ele>
        <time>2011-06-26T09:04:32Z</time>
      </trkpt>
      <trkpt lat="43.38951" lon="-0.65699">
        <ele>110.208252</ele>
        <time>2011-06-26T09:04:42Z</time>
      </trkpt>
      <trkpt lat="43.3894" lon="-0.65629">
        <ele>110.208252</ele>
        <time>2011-06-26T09:04:59Z</time>
      </trkpt>
      <trkpt lat="43.38935" lon="-0.65606">
        <ele>109.246948</ele>
        <time>2011-06-26T09:05:04Z</time>
      </trkpt>
      <trkpt lat="43.38945" lon="-0.65573">
        <ele>107.805054</ele>
        <time>2011-06-26T09:05:10Z</time>
      </trkpt>
      <trkpt lat="43.38976" lon="-0.65534">
        <ele>107.805054</ele>
        <time>2011-06-26T09:05:23Z</time>
      </trkpt>
      <trkpt lat="43.38994" lon="-0.65482">
        <ele>107.805054</ele>
        <time>2011-06-26T09:05:37Z</time>
      </trkpt>
      <trkpt lat="43.38994" lon="-0.65479">
        <ele>107.805054</ele>
        <time>2011-06-26T09:05:39Z</time>
      </trkpt>
      <trkpt lat="43.39001" lon="-0.65447">
        <ele>107.324341</ele>
        <time>2011-06-26T09:05:51Z</time>
      </trkpt>
      <trkpt lat="43.39037" lon="-0.65412">
        <ele>110.208252</ele>
        <time>2011-06-26T09:06:08Z</time>
      </trkpt>
      <trkpt lat="43.39039" lon="-0.6541">
        <ele>110.208252</ele>
        <time>2011-06-26T09:06:09Z</time>
      </trkpt>
      <trkpt lat="43.3904" lon="-0.65362">
        <ele>112.611572</ele>
        <time>2011-06-26T09:06:24Z</time>
      </trkpt>
      <trkpt lat="43.39026" lon="-0.65314">
        <ele>115.014893</ele>
        <time>2011-06-26T09:06:40Z</time>
      </trkpt>
      <trkpt lat="43.39015" lon="-0.65278">
        <ele>118.379395</ele>
        <time>2011-06-26T09:06:53Z</time>
      </trkpt>
      <trkpt lat="43.39014" lon="-0.65246">
        <ele>119.821411</ele>
        <time>2011-06-26T09:07:05Z</time>
      </trkpt>
      <trkpt lat="43.39014" lon="-0.65239">
        <ele>121.26355</ele>
        <time>2011-06-26T09:07:16Z</time>
      </trkpt>
      <trkpt lat="43.39014" lon="-0.65235">
        <ele>120.782837</ele>
        <time>2011-06-26T09:07:29Z</time>
      </trkpt>
      <trkpt lat="43.39015" lon="-0.65225">
        <ele>122.224731</ele>
        <time>2011-06-26T09:07:44Z</time>
      </trkpt>
      <trkpt lat="43.39015" lon="-0.65218">
        <ele>123.666748</ele>
        <time>2011-06-26T09:07:56Z</time>
      </trkpt>
      <trkpt lat="43.39016" lon="-0.65217">
        <ele>122.705444</ele>
        <time>2011-06-26T09:08:11Z</time>
      </trkpt>
      <trkpt lat="43.39017" lon="-0.65217">
        <ele>122.705444</ele>
        <time>2011-06-26T09:08:30Z</time>
      </trkpt>
      <trkpt lat="43.39016" lon="-0.65215">
        <ele>123.186157</ele>
        <time>2011-06-26T09:09:07Z</time>
      </trkpt>
      <trkpt lat="43.39013" lon="-0.65195">
        <ele>126.069946</ele>
        <time>2011-06-26T09:09:24Z</time>
      </trkpt>
      <trkpt lat="43.39009" lon="-0.65166">
        <ele>129.434692</ele>
        <time>2011-06-26T09:09:44Z</time>
      </trkpt>
      <trkpt lat="43.39006" lon="-0.65146">
        <ele>132.799316</ele>
        <time>2011-06-26T09:09:58Z</time>
      </trkpt>
      <trkpt lat="43.39001" lon="-0.65122">
        <ele>136.16394</ele>
        <time>2011-06-26T09:10:17Z</time>
      </trkpt>
      <trkpt lat="43.3899" lon="-0.65097">
        <ele>140.009155</ele>
        <time>2011-06-26T09:10:39Z</time>
      </trkpt>
      <trkpt lat="43.38983" lon="-0.65085">
        <ele>142.412476</ele>
        <time>2011-06-26T09:10:50Z</time>
      </trkpt>
      <trkpt lat="43.38978" lon="-0.65077">
        <ele>144.335205</ele>
        <time>2011-06-26T09:10:57Z</time>
      </trkpt>
      <trkpt lat="43.3896" lon="-0.65046">
        <ele>146.738403</ele>
        <time>2011-06-26T09:11:23Z</time>
      </trkpt>
      <trkpt lat="43.38956" lon="-0.65042">
        <ele>146.738403</ele>
        <time>2011-06-26T09:11:31Z</time>
      </trkpt>
      <trkpt lat="43.3894" lon="-0.65021">
        <ele>149.622314</ele>
        <time>2011-06-26T09:11:48Z</time>
      </trkpt>
      <trkpt lat="43.38922" lon="-0.64991">
        <ele>152.025757</ele>
        <time>2011-06-26T09:12:08Z</time>
      </trkpt>
      <trkpt lat="43.38914" lon="-0.64974">
        <ele>155.390259</ele>
        <time>2011-06-26T09:12:18Z</time>
      </trkpt>
      <trkpt lat="43.38895" lon="-0.64938">
        <ele>157.793579</ele>
        <time>2011-06-26T09:12:38Z</time>
      </trkpt>
      <trkpt lat="43.38899" lon="-0.64916">
        <ele>159.716187</ele>
        <time>2011-06-26T09:12:49Z</time>
      </trkpt>
      <trkpt lat="43.38904" lon="-0.64879">
        <ele>159.235474</ele>
        <time>2011-06-26T09:13:01Z</time>
      </trkpt>
      <trkpt lat="43.38904" lon="-0.64873">
        <ele>158.754761</ele>
        <time>2011-06-26T09:13:02Z</time>
      </trkpt>
      <trkpt lat="43.38886" lon="-0.64829">
        <ele>156.832153</ele>
        <time>2011-06-26T09:13:09Z</time>
      </trkpt>
      <trkpt lat="43.3884" lon="-0.64779">
        <ele>154.428955</ele>
        <time>2011-06-26T09:13:17Z</time>
      </trkpt>
      <trkpt lat="43.38815" lon="-0.64733">
        <ele>151.064209</ele>
        <time>2011-06-26T09:13:22Z</time>
      </trkpt>
      <trkpt lat="43.38811" lon="-0.64722">
        <ele>151.064209</ele>
        <time>2011-06-26T09:13:23Z</time>
      </trkpt>
      <trkpt lat="43.38797" lon="-0.64691">
        <ele>148.661011</ele>
        <time>2011-06-26T09:13:27Z</time>
      </trkpt>
      <trkpt lat="43.388" lon="-0.64681">
        <ele>147.218994</ele>
        <time>2011-06-26T09:13:30Z</time>
      </trkpt>
      <trkpt lat="43.38816" lon="-0.64689">
        <ele>146.257812</ele>
        <time>2011-06-26T09:13:34Z</time>
      </trkpt>
      <trkpt lat="43.38842" lon="-0.64711">
        <ele>144.335205</ele>
        <time>2011-06-26T09:13:39Z</time>
      </trkpt>
      <trkpt lat="43.38906" lon="-0.64755">
        <ele>143.85437</ele>
        <time>2011-06-26T09:13:51Z</time>
      </trkpt>
      <trkpt lat="43.38915" lon="-0.6476">
        <ele>143.85437</ele>
        <time>2011-06-26T09:13:53Z</time>
      </trkpt>
      <trkpt lat="43.38956" lon="-0.64783">
        <ele>144.335205</ele>
        <time>2011-06-26T09:14:03Z</time>
      </trkpt>
      <trkpt lat="43.39023" lon="-0.64815">
        <ele>145.7771</ele>
        <time>2011-06-26T09:14:21Z</time>
      </trkpt>
      <trkpt lat="43.39054" lon="-0.64784">
        <ele>149.141602</ele>
        <time>2011-06-26T09:14:32Z</time>
      </trkpt>
      <trkpt lat="43.391" lon="-0.64719">
        <ele>151.064209</ele>
        <time>2011-06-26T09:14:52Z</time>
      </trkpt>
      <trkpt lat="43.39137" lon="-0.64711">
        <ele>150.583618</ele>
        <time>2011-06-26T09:15:02Z</time>
      </trkpt>
      <trkpt lat="43.39154" lon="-0.64717">
        <ele>151.544922</ele>
        <time>2011-06-26T09:15:06Z</time>
      </trkpt>
      <trkpt lat="43.39176" lon="-0.64737">
        <ele>151.544922</ele>
        <time>2011-06-26T09:15:12Z</time>
      </trkpt>
      <trkpt lat="43.39203" lon="-0.64792">
        <ele>152.025757</ele>
        <time>2011-06-26T09:15:23Z</time>
      </trkpt>
      <trkpt lat="43.39213" lon="-0.64826">
        <ele>152.025757</ele>
        <time>2011-06-26T09:15:29Z</time>
      </trkpt>
      <trkpt lat="43.39238" lon="-0.64933">
        <ele>149.141602</ele>
        <time>2011-06-26T09:15:44Z</time>
      </trkpt>
      <trkpt lat="43.39254" lon="-0.64934">
        <ele>147.699707</ele>
        <time>2011-06-26T09:15:49Z</time>
      </trkpt>
      <trkpt lat="43.39259" lon="-0.64902">
        <ele>145.296387</ele>
        <time>2011-06-26T09:15:52Z</time>
      </trkpt>
      <trkpt lat="43.39274" lon="-0.64858">
        <ele>142.412476</ele>
        <time>2011-06-26T09:15:56Z</time>
      </trkpt>
      <trkpt lat="43.39277" lon="-0.6485">
        <ele>140.970459</ele>
        <time>2011-06-26T09:15:57Z</time>
      </trkpt>
      <trkpt lat="43.39278" lon="-0.64818">
        <ele>140.489868</ele>
        <time>2011-06-26T09:16:01Z</time>
      </trkpt>
      <trkpt lat="43.39296" lon="-0.64797">
        <ele>138.086548</ele>
        <time>2011-06-26T09:16:08Z</time>
      </trkpt>
      <trkpt lat="43.393" lon="-0.64803">
        <ele>136.644653</ele>
        <time>2011-06-26T09:16:10Z</time>
      </trkpt>
      <trkpt lat="43.39309" lon="-0.64782">
        <ele>137.125244</ele>
        <time>2011-06-26T09:16:18Z</time>
      </trkpt>
      <trkpt lat="43.39304" lon="-0.6476">
        <ele>132.318604</ele>
        <time>2011-06-26T09:16:22Z</time>
      </trkpt>
      <trkpt lat="43.39301" lon="-0.64755">
        <ele>131.837891</ele>
        <time>2011-06-26T09:16:23Z</time>
      </trkpt>
      <trkpt lat="43.3929" lon="-0.64739">
        <ele>129.915283</ele>
        <time>2011-06-26T09:16:26Z</time>
      </trkpt>
      <trkpt lat="43.39276" lon="-0.64718">
        <ele>127.031372</ele>
        <time>2011-06-26T09:16:30Z</time>
      </trkpt>
      <trkpt lat="43.39272" lon="-0.64712">
        <ele>125.589355</ele>
        <time>2011-06-26T09:16:31Z</time>
      </trkpt>
      <trkpt lat="43.39261" lon="-0.6469">
        <ele>124.147339</ele>
        <time>2011-06-26T09:16:34Z</time>
      </trkpt>
      <trkpt lat="43.39248" lon="-0.64662">
        <ele>120.782837</ele>
        <time>2011-06-26T09:16:38Z</time>
      </trkpt>
      <trkpt lat="43.39244" lon="-0.64657">
        <ele>120.302124</ele>
        <time>2011-06-26T09:16:39Z</time>
      </trkpt>
      <trkpt lat="43.39234" lon="-0.64642">
        <ele>118.379395</ele>
        <time>2011-06-26T09:16:42Z</time>
      </trkpt>
      <trkpt lat="43.39229" lon="-0.64618">
        <ele>115.014893</ele>
        <time>2011-06-26T09:16:45Z</time>
      </trkpt>
      <trkpt lat="43.39223" lon="-0.64603">
        <ele>113.572998</ele>
        <time>2011-06-26T09:16:48Z</time>
      </trkpt>
      <trkpt lat="43.39219" lon="-0.64595">
        <ele>112.130981</ele>
        <time>2011-06-26T09:16:50Z</time>
      </trkpt>
      <trkpt lat="43.39214" lon="-0.64585">
        <ele>110.688843</ele>
        <time>2011-06-26T09:16:52Z</time>
      </trkpt>
      <trkpt lat="43.39202" lon="-0.64566">
        <ele>106.363037</ele>
        <time>2011-06-26T09:16:55Z</time>
      </trkpt>
      <trkpt lat="43.39192" lon="-0.64558">
        <ele>104.44043</ele>
        <time>2011-06-26T09:16:57Z</time>
      </trkpt>
      <trkpt lat="43.39181" lon="-0.64551">
        <ele>104.44043</ele>
        <time>2011-06-26T09:16:59Z</time>
      </trkpt>
      <trkpt lat="43.3917" lon="-0.64547">
        <ele>105.401733</ele>
        <time>2011-06-26T09:17:01Z</time>
      </trkpt>
      <trkpt lat="43.39145" lon="-0.64533">
        <ele>103.959717</ele>
        <time>2011-06-26T09:17:07Z</time>
      </trkpt>
      <trkpt lat="43.39137" lon="-0.64527">
        <ele>102.998291</ele>
        <time>2011-06-26T09:17:09Z</time>
      </trkpt>
      <trkpt lat="43.39115" lon="-0.64513">
        <ele>101.556396</ele>
        <time>2011-06-26T09:17:14Z</time>
      </trkpt>
      <trkpt lat="43.39097" lon="-0.64502">
        <ele>100.114502</ele>
        <time>2011-06-26T09:17:18Z</time>
      </trkpt>
      <trkpt lat="43.3907" lon="-0.64485">
        <ele>99.633789</ele>
        <time>2011-06-26T09:17:24Z</time>
      </trkpt>
      <trkpt lat="43.39048" lon="-0.64459">
        <ele>97.711182</ele>
        <time>2011-06-26T09:17:30Z</time>
      </trkpt>
      <trkpt lat="43.39043" lon="-0.64446">
        <ele>96.749878</ele>
        <time>2011-06-26T09:17:32Z</time>
      </trkpt>
      <trkpt lat="43.39015" lon="-0.64376">
        <ele>95.307739</ele>
        <time>2011-06-26T09:17:46Z</time>
      </trkpt>
      <trkpt lat="43.38998" lon="-0.64363">
        <ele>95.307739</ele>
        <time>2011-06-26T09:17:52Z</time>
      </trkpt>
      <trkpt lat="43.39" lon="-0.64314">
        <ele>96.269287</ele>
        <time>2011-06-26T09:18:04Z</time>
      </trkpt>
      <trkpt lat="43.39" lon="-0.64306">
        <ele>96.749878</ele>
        <time>2011-06-26T09:18:06Z</time>
      </trkpt>
      <trkpt lat="43.38979" lon="-0.64261">
        <ele>96.269287</ele>
        <time>2011-06-26T09:18:19Z</time>
      </trkpt>
      <trkpt lat="43.38976" lon="-0.64247">
        <ele>93.385132</ele>
        <time>2011-06-26T09:18:24Z</time>
      </trkpt>
      <trkpt lat="43.38961" lon="-0.64239">
        <ele>93.865845</ele>
        <time>2011-06-26T09:18:36Z</time>
      </trkpt>
      <trkpt lat="43.38948" lon="-0.64233">
        <ele>92.904541</ele>
        <time>2011-06-26T09:18:50Z</time>
      </trkpt>
      <trkpt lat="43.38945" lon="-0.64229">
        <ele>94.346558</ele>
        <time>2011-06-26T09:18:55Z</time>
      </trkpt>
      <trkpt lat="43.38943" lon="-0.64222">
        <ele>94.827148</ele>
        <time>2011-06-26T09:19:00Z</time>
      </trkpt>
      <trkpt lat="43.38954" lon="-0.64208">
        <ele>96.269287</ele>
        <time>2011-06-26T09:19:13Z</time>
      </trkpt>
      <trkpt lat="43.38976" lon="-0.64228">
        <ele>96.269287</ele>
        <time>2011-06-26T09:19:25Z</time>
      </trkpt>
      <trkpt lat="43.39012" lon="-0.64254">
        <ele>96.269287</ele>
        <time>2011-06-26T09:19:38Z</time>
      </trkpt>
      <trkpt lat="43.3903" lon="-0.64252">
        <ele>95.788452</ele>
        <time>2011-06-26T09:19:43Z</time>
      </trkpt>
      <trkpt lat="43.39074" lon="-0.64242">
        <ele>96.749878</ele>
        <time>2011-06-26T09:19:56Z</time>
      </trkpt>
      <trkpt lat="43.391" lon="-0.64213">
        <ele>99.153076</ele>
        <time>2011-06-26T09:20:07Z</time>
      </trkpt>
      <trkpt lat="43.39138" lon="-0.64157">
        <ele>100.114502</ele>
        <time>2011-06-26T09:20:23Z</time>
      </trkpt>
      <trkpt lat="43.39206" lon="-0.64073">
        <ele>100.595093</ele>
        <time>2011-06-26T09:20:44Z</time>
      </trkpt>
      <trkpt lat="43.39288" lon="-0.6397">
        <ele>100.114502</ele>
        <time>2011-06-26T09:21:05Z</time>
      </trkpt>
      <trkpt lat="43.39403" lon="-0.63838">
        <ele>98.672485</ele>
        <time>2011-06-26T09:21:29Z</time>
      </trkpt>
      <trkpt lat="43.39479" lon="-0.63722">
        <ele>100.114502</ele>
        <time>2011-06-26T09:21:48Z</time>
      </trkpt>
      <trkpt lat="43.39493" lon="-0.63694">
        <ele>98.191895</ele>
        <time>2011-06-26T09:21:53Z</time>
      </trkpt>
      <trkpt lat="43.3951" lon="-0.63684">
        <ele>97.711182</ele>
        <time>2011-06-26T09:22:00Z</time>
      </trkpt>
      <trkpt lat="43.39561" lon="-0.63617">
        <ele>98.191895</ele>
        <time>2011-06-26T09:22:18Z</time>
      </trkpt>
      <trkpt lat="43.39577" lon="-0.63595">
        <ele>97.711182</ele>
        <time>2011-06-26T09:22:33Z</time>
      </trkpt>
      <trkpt lat="43.39581" lon="-0.6359">
        <ele>97.711182</ele>
        <time>2011-06-26T09:22:46Z</time>
      </trkpt>
      <trkpt lat="43.39579" lon="-0.63593">
        <ele>98.191895</ele>
        <time>2011-06-26T09:22:58Z</time>
      </trkpt>
      <trkpt lat="43.39578" lon="-0.63592">
        <ele>98.191895</ele>
        <time>2011-06-26T09:23:14Z</time>
      </trkpt>
      <trkpt lat="43.39578" lon="-0.6359">
        <ele>98.191895</ele>
        <time>2011-06-26T09:23:28Z</time>
      </trkpt>
      <trkpt lat="43.39578" lon="-0.63591">
        <ele>97.711182</ele>
        <time>2011-06-26T09:24:03Z</time>
      </trkpt>
      <trkpt lat="43.39579" lon="-0.63592">
        <ele>98.191895</ele>
        <time>2011-06-26T09:24:21Z</time>
      </trkpt>
      <trkpt lat="43.39579" lon="-0.63594">
        <ele>98.191895</ele>
        <time>2011-06-26T09:24:37Z</time>
      </trkpt>
      <trkpt lat="43.39578" lon="-0.63594">
        <ele>98.191895</ele>
        <time>2011-06-26T09:25:14Z</time>
      </trkpt>
      <trkpt lat="43.39577" lon="-0.63591">
        <ele>97.711182</ele>
        <time>2011-06-26T09:25:45Z</time>
      </trkpt>
      <trkpt lat="43.39577" lon="-0.63591">
        <ele>98.191895</ele>
        <time>2011-06-26T09:26:02Z</time>
      </trkpt>
      <trkpt lat="43.39578" lon="-0.63591">
        <ele>97.711182</ele>
        <time>2011-06-26T09:26:13Z</time>
      </trkpt>
      <trkpt lat="43.3958" lon="-0.63592">
        <ele>98.672485</ele>
        <time>2011-06-26T09:26:36Z</time>
      </trkpt>
      <trkpt lat="43.39581" lon="-0.63589">
        <ele>98.672485</ele>
        <time>2011-06-26T09:26:54Z</time>
      </trkpt>
      <trkpt lat="43.39581" lon="-0.63589">
        <ele>98.672485</ele>
        <time>2011-06-26T09:27:00Z</time>
      </trkpt>
    </trkseg>
  </trk>
</gpx>